Observation data for Palo Duro Canyon State Park Floor on 02/14/2020      Previous  Date  Next       Current Mesonet Observations  Soil Data  Daily Summary Page  Observations in Plain Language
KPD2 140600Z 13009KT M04/M11 A3031 RMK A01 T10431106  RH  062%=      5-min Rain = 0
KPD2 140601Z 14008KT M04/M11 A3031 RMK A01 T10441106  RH  062%=      5-min Rain = 0
KPD2 140602Z 13010KT M04/M11 A3031 RMK A01 T10441106  RH  062%=      5-min Rain = 0
KPD2 140603Z 13010KT M04/M11 A3031 RMK A01 T10441106  RH  062%=      5-min Rain = 0
KPD2 140604Z 13008KT M04/M11 A3031 RMK A01 T10441106  RH  062%=      5-min Rain = 0
KPD2 140605Z 13008KT M04/M11 A3031 RMK A01 T10441106  RH  062%=      5-min Rain = 0
KPD2 140606Z 13010KT M05/M11 A3031 RMK A01 T10451105  RH  063%=      5-min Rain = 0
KPD2 140607Z 13008KT M05/M11 A3031 RMK A01 T10451105  RH  063%=      5-min Rain = 0
KPD2 140608Z 14008KT M05/M11 A3031 RMK A01 T10451105  RH  063%=      5-min Rain = 0
KPD2 140609Z 13006KT M05/M11 A3031 RMK A01 T10451106  RH  062%=      5-min Rain = 0
KPD2 140610Z 14008KT M05/M11 A3031 RMK A01 T10451106  RH  062%=      5-min Rain = 0
KPD2 140611Z 13007KT M05/M11 A3031 RMK A01 T10451107  RH  062%=      5-min Rain = 0
KPD2 140612Z 14007KT M05/M11 A3031 RMK A01 T10451106  RH  063%=      5-min Rain = 0
KPD2 140613Z 13007KT M05/M11 A3031 RMK A01 T10461106  RH  063%=      5-min Rain = 0
KPD2 140614Z 13007KT M05/M11 A3031 RMK A01 T10461106  RH  063%=      5-min Rain = 0
KPD2 140615Z 13006KT M05/M11 A3031 RMK A01 T10461106  RH  063%=      5-min Rain = 0
KPD2 140616Z 13008KT M05/M11 A3031 RMK A01 T10461106  RH  063%=      5-min Rain = 0
KPD2 140617Z 14008KT M05/M11 A3031 RMK A01 T10461107  RH  063%=      5-min Rain = 0
KPD2 140618Z 13008KT M05/M11 A3032 RMK A01 T10461107  RH  063%=      5-min Rain = 0
KPD2 140619Z 13007KT M05/M11 A3031 RMK A01 T10461107  RH  063%=      5-min Rain = 0
KPD2 140620Z 12006KT M05/M11 A3032 RMK A01 T10461106  RH  063%=      5-min Rain = 0
KPD2 140621Z 12007KT M05/M11 A3032 RMK A01 T10461105  RH  063%=      5-min Rain = 0
KPD2 140622Z 12008KT M05/M11 A3032 RMK A01 T10461105  RH  063%=      5-min Rain = 0
KPD2 140623Z 12009KT M05/M11 A3032 RMK A01 T10461106  RH  063%=      5-min Rain = 0
KPD2 140624Z 12006KT M05/M11 A3032 RMK A01 T10461106  RH  063%=      5-min Rain = 0
KPD2 140625Z 13007KT M05/M11 A3032 RMK A01 T10461106  RH  063%=      5-min Rain = 0
KPD2 140626Z 13007KT M05/M11 A3032 RMK A01 T10461106  RH  063%=      5-min Rain = 0
KPD2 140627Z 13008KT M05/M11 A3032 RMK A01 T10461106  RH  063%=      5-min Rain = 0
KPD2 140628Z 13008KT M05/M11 A3032 RMK A01 T10461107  RH  063%=      5-min Rain = 0
KPD2 140629Z 13006KT M05/M11 A3032 RMK A01 T10471107  RH  063%=      5-min Rain = 0
KPD2 140630Z 13007KT M05/M11 A3032 RMK A01 T10461107  RH  063%=      5-min Rain = 0
KPD2 140631Z 12009KT M05/M11 A3032 RMK A01 T10461106  RH  063%=      5-min Rain = 0
KPD2 140632Z 13008KT M05/M11 A3032 RMK A01 T10471107  RH  063%=      5-min Rain = 0
KPD2 140633Z 13006KT M05/M11 A3032 RMK A01 T10471107  RH  063%=      5-min Rain = 0
KPD2 140634Z 13008KT M05/M11 A3032 RMK A01 T10471107  RH  063%=      5-min Rain = 0
KPD2 140635Z 14005KT M05/M11 A3032 RMK A01 T10471107  RH  063%=      5-min Rain = 0
KPD2 140636Z 13007KT M05/M11 A3032 RMK A01 T10471106  RH  063%=      5-min Rain = 0
KPD2 140637Z 13010KT M05/M11 A3032 RMK A01 T10471108  RH  063%=      5-min Rain = 0
KPD2 140638Z 13009KT M05/M11 A3032 RMK A01 T10481109  RH  062%=      5-min Rain = 0
KPD2 140639Z 12009KT M05/M11 A3032 RMK A01 T10481109  RH  062%=      5-min Rain = 0
KPD2 140640Z 13009KT M05/M11 A3032 RMK A01 T10481109  RH  062%=      5-min Rain = 0
KPD2 140641Z 14008KT M05/M11 A3032 RMK A01 T10481109  RH  062%=      5-min Rain = 0
KPD2 140642Z 13010KT M05/M11 A3032 RMK A01 T10481109  RH  062%=      5-min Rain = 0
KPD2 140643Z 13008KT M05/M11 A3032 RMK A01 T10481110  RH  062%=      5-min Rain = 0
KPD2 140644Z 13007KT M05/M11 A3032 RMK A01 T10481110  RH  062%=      5-min Rain = 0
KPD2 140645Z 13007KT M05/M11 A3033 RMK A01 T10481110  RH  062%=      5-min Rain = 0
KPD2 140646Z 13007KT M05/M11 A3033 RMK A01 T10481110  RH  062%=      5-min Rain = 0
KPD2 140647Z 12009KT M05/M11 A3033 RMK A01 T10491110  RH  062%=      5-min Rain = 0
KPD2 140648Z 13008KT M05/M11 A3033 RMK A01 T10491109  RH  063%=      5-min Rain = 0
KPD2 140649Z 12009KT M05/M11 A3033 RMK A01 T10491109  RH  063%=      5-min Rain = 0
KPD2 140650Z 12009KT M05/M11 A3033 RMK A01 T10481109  RH  063%=      5-min Rain = 0
KPD2 140651Z 12010KT M05/M11 A3033 RMK A01 T10491110  RH  062%=      5-min Rain = 0
KPD2 140652Z 12008KT M05/M11 A3033 RMK A01 T10491110  RH  062%=      5-min Rain = 0
KPD2 140653Z 13007KT M05/M11 A3033 RMK A01 T10491110  RH  062%=      5-min Rain = 0
KPD2 140654Z 13007KT M05/M11 A3033 RMK A01 T10481109  RH  063%=      5-min Rain = 0
KPD2 140655Z 13007KT M05/M11 A3033 RMK A01 T10491109  RH  063%=      5-min Rain = 0
KPD2 140656Z 13007KT M05/M11 A3033 RMK A01 T10491109  RH  063%=      5-min Rain = 0
KPD2 140657Z 13007KT M05/M11 A3033 RMK A01 T10491110  RH  063%=      5-min Rain = 0
KPD2 140658Z 12009KT M05/M11 A3033 RMK A01 T10501110  RH  062%=      5-min Rain = 0
KPD2 140659Z 12008KT M05/M11 A3033 RMK A01 T10491111  RH  062%=      5-min Rain = 0
KPD2 140700Z 12007KT M05/M11 A3033 RMK A01 T10501110  RH  062%=      5-min Rain = 0
KPD2 140701Z 13010KT M05/M11 A3033 RMK A01 T10501110  RH  063%=      5-min Rain = 0
KPD2 140702Z 13008KT M05/M11 A3033 RMK A01 T10501111  RH  062%=      5-min Rain = 0
KPD2 140703Z 13008KT M05/M11 A3033 RMK A01 T10491110  RH  062%=      5-min Rain = 0
KPD2 140704Z 13009KT M05/M11 A3033 RMK A01 T10491109  RH  063%=      5-min Rain = 0
KPD2 140705Z 13008KT M05/M11 A3033 RMK A01 T10501110  RH  062%=      5-min Rain = 0
KPD2 140706Z 13007KT M05/M11 A3033 RMK A01 T10501111  RH  062%=      5-min Rain = 0
KPD2 140707Z 12005KT M05/M11 A3033 RMK A01 T10501111  RH  062%=      5-min Rain = 0
KPD2 140708Z 14005KT M05/M11 A3033 RMK A01 T10501110  RH  063%=      5-min Rain = 0
KPD2 140709Z 13006KT M05/M11 A3033 RMK A01 T10501110  RH  063%=      5-min Rain = 0
KPD2 140710Z 13006KT M05/M11 A3033 RMK A01 T10501110  RH  063%=      5-min Rain = 0
KPD2 140711Z 13005KT M05/M11 A3033 RMK A01 T10501110  RH  063%=      5-min Rain = 0
KPD2 140712Z 14006KT M05/M11 A3033 RMK A01 T10501109  RH  063%=      5-min Rain = 0
KPD2 140713Z 13008KT M05/M11 A3033 RMK A01 T10501109  RH  063%=      5-min Rain = 0
KPD2 140714Z 13007KT M05/M11 A3033 RMK A01 T10501110  RH  063%=      5-min Rain = 0
KPD2 140715Z 13006KT M05/M11 A3034 RMK A01 T10501110  RH  063%=      5-min Rain = 0
KPD2 140716Z 14005KT M05/M11 A3034 RMK A01 T10501109  RH  063%=      5-min Rain = 0
KPD2 140717Z 13005KT M05/M11 A3034 RMK A01 T10501109  RH  063%=      5-min Rain = 0
KPD2 140718Z 11005KT M05/M11 A3034 RMK A01 T10501108  RH  064%=      5-min Rain = 0
KPD2 140719Z 12005KT M05/M11 A3034 RMK A01 T10501108  RH  064%=      5-min Rain = 0
KPD2 140720Z 12006KT M05/M11 A3034 RMK A01 T10501108  RH  064%=      5-min Rain = 0
KPD2 140721Z 12007KT M05/M11 A3034 RMK A01 T10501108  RH  064%=      5-min Rain = 0
KPD2 140722Z 13005KT M05/M11 A3034 RMK A01 T10501108  RH  064%=      5-min Rain = 0
KPD2 140723Z 13007KT M05/M11 A3034 RMK A01 T10501108  RH  063%=      5-min Rain = 0
KPD2 140724Z 12006KT M05/M11 A3034 RMK A01 T10491109  RH  063%=      5-min Rain = 0
KPD2 140725Z 12008KT M05/M11 A3034 RMK A01 T10501109  RH  063%=      5-min Rain = 0
KPD2 140726Z 13006KT M05/M11 A3034 RMK A01 T10501109  RH  063%=      5-min Rain = 0
KPD2 140727Z 13005KT M05/M11 A3034 RMK A01 T10501109  RH  063%=      5-min Rain = 0
KPD2 140728Z 12006KT M05/M11 A3034 RMK A01 T10501108  RH  064%=      5-min Rain = 0
KPD2 140729Z 13006KT M05/M11 A3034 RMK A01 T10501108  RH  064%=      5-min Rain = 0
KPD2 140730Z 13006KT M05/M11 A3034 RMK A01 T10501109  RH  063%=      5-min Rain = 0
KPD2 140731Z 12007KT M05/M11 A3034 RMK A01 T10511110  RH  063%=      5-min Rain = 0
KPD2 140732Z 13006KT M05/M11 A3034 RMK A01 T10511110  RH  063%=      5-min Rain = 0
KPD2 140733Z 12007KT M05/M11 A3033 RMK A01 T10511109  RH  064%=      5-min Rain = 0
KPD2 140734Z 12006KT M05/M11 A3034 RMK A01 T10511109  RH  064%=      5-min Rain = 0
KPD2 140735Z 12007KT M05/M11 A3034 RMK A01 T10511109  RH  064%=      5-min Rain = 0
KPD2 140736Z 12008KT M05/M11 A3034 RMK A01 T10511109  RH  064%=      5-min Rain = 0
KPD2 140737Z 13006KT M05/M11 A3034 RMK A01 T10521110  RH  064%=      5-min Rain = 0
KPD2 140738Z 12006G11KT M05/M11 A3034 RMK A01 T10521109  RH  064%=      5-min Rain = 0
KPD2 140739Z 13005KT M05/M11 A3034 RMK A01 T10521109  RH  064%=      5-min Rain = 0
KPD2 140740Z 12006KT M05/M11 A3034 RMK A01 T10521108  RH  065%=      5-min Rain = 0
KPD2 140741Z 13006KT M05/M11 A3034 RMK A01 T10521108  RH  065%=      5-min Rain = 0
KPD2 140742Z 13007KT M05/M11 A3034 RMK A01 T10531108  RH  065%=      5-min Rain = 0
KPD2 140743Z 13006KT M05/M11 A3034 RMK A01 T10531109  RH  064%=      5-min Rain = 0
KPD2 140744Z 13005KT M05/M11 A3034 RMK A01 T10531110  RH  064%=      5-min Rain = 0
KPD2 140745Z 13005KT M05/M11 A3034 RMK A01 T10531109  RH  065%=      5-min Rain = 0
KPD2 140746Z 13005KT M05/M11 A3034 RMK A01 T10531109  RH  065%=      5-min Rain = 0
KPD2 140747Z 13004KT M05/M11 A3034 RMK A01 T10531109  RH  065%=      5-min Rain = 0
KPD2 140748Z 12006KT M05/M11 A3034 RMK A01 T10531108  RH  065%=      5-min Rain = 0
KPD2 140749Z 12005KT M05/M11 A3034 RMK A01 T10531108  RH  065%=      5-min Rain = 0
KPD2 140750Z 14004KT M05/M11 A3034 RMK A01 T10541108  RH  066%=      5-min Rain = 0
KPD2 140751Z 13007KT M05/M11 A3034 RMK A01 T10541107  RH  066%=      5-min Rain = 0
KPD2 140752Z 12006KT M05/M11 A3034 RMK A01 T10531108  RH  066%=      5-min Rain = 0
KPD2 140753Z 12005KT M05/M11 A3034 RMK A01 T10541109  RH  066%=      5-min Rain = 0
KPD2 140754Z 12005KT M05/M11 A3034 RMK A01 T10541108  RH  066%=      5-min Rain = 0
KPD2 140755Z 12005KT M05/M11 A3034 RMK A01 T10541108  RH  066%=      5-min Rain = 0
KPD2 140756Z 10005KT M05/M11 A3034 RMK A01 T10541108  RH  066%=      5-min Rain = 0
KPD2 140757Z 12005KT M05/M11 A3034 RMK A01 T10541109  RH  066%=      5-min Rain = 0
KPD2 140758Z 13005KT M05/M11 A3034 RMK A01 T10541108  RH  066%=      5-min Rain = 0
KPD2 140759Z 12006KT M05/M11 A3034 RMK A01 T10541108  RH  066%=      5-min Rain = 0
KPD2 140800Z 13007KT M05/M11 A3034 RMK A01 T10541109  RH  065%=      5-min Rain = 0
KPD2 140801Z 13006KT M05/M11 A3034 RMK A01 T10541109  RH  065%=      5-min Rain = 0
KPD2 140802Z 13007KT M05/M11 A3034 RMK A01 T10541109  RH  065%=      5-min Rain = 0
KPD2 140803Z 13005KT M06/M11 A3034 RMK A01 T10551110  RH  065%=      5-min Rain = 0
KPD2 140804Z 12005KT M06/M11 A3034 RMK A01 T10551110  RH  065%=      5-min Rain = 0
KPD2 140805Z 12006KT M05/M11 A3034 RMK A01 T10541109  RH  065%=      5-min Rain = 0
KPD2 140806Z 12006KT M06/M11 A3034 RMK A01 T10551109  RH  066%=      5-min Rain = 0
KPD2 140807Z 13005KT M05/M11 A3035 RMK A01 T10541108  RH  066%=      5-min Rain = 0
KPD2 140808Z 12006KT M05/M11 A3035 RMK A01 T10541109  RH  066%=      5-min Rain = 0
KPD2 140809Z 13005KT M05/M11 A3034 RMK A01 T10541109  RH  066%=      5-min Rain = 0
KPD2 140810Z 12005KT M05/M11 A3034 RMK A01 T10531107  RH  066%=      5-min Rain = 0
KPD2 140811Z 12005KT M05/M11 A3034 RMK A01 T10541107  RH  066%=      5-min Rain = 0
KPD2 140812Z 12006KT M05/M11 A3034 RMK A01 T10531106  RH  066%=      5-min Rain = 0
KPD2 140813Z 12007KT M05/M11 A3034 RMK A01 T10531107  RH  066%=      5-min Rain = 0
KPD2 140814Z 13006KT M05/M11 A3034 RMK A01 T10531107  RH  066%=      5-min Rain = 0
KPD2 140815Z 12006KT M05/M11 A3034 RMK A01 T10531107  RH  066%=      5-min Rain = 0
KPD2 140816Z 12007KT M05/M11 A3034 RMK A01 T10531107  RH  065%=      5-min Rain = 0
KPD2 140817Z 12005KT M05/M11 A3034 RMK A01 T10531107  RH  065%=      5-min Rain = 0
KPD2 140818Z 12006KT M05/M11 A3034 RMK A01 T10531107  RH  066%=      5-min Rain = 0
KPD2 140819Z 12006KT M05/M11 A3034 RMK A01 T10521107  RH  066%=      5-min Rain = 0
KPD2 140820Z 12007KT M05/M11 A3035 RMK A01 T10521107  RH  065%=      5-min Rain = 0
KPD2 140821Z 13005KT M05/M11 A3035 RMK A01 T10521107  RH  065%=      5-min Rain = 0
KPD2 140822Z 13004KT M05/M11 A3034 RMK A01 T10521107  RH  065%=      5-min Rain = 0
KPD2 140823Z 12003KT M05/M11 A3034 RMK A01 T10521107  RH  065%=      5-min Rain = 0
KPD2 140824Z 11005KT M05/M11 A3034 RMK A01 T10521106  RH  066%=      5-min Rain = 0
KPD2 140825Z 12006KT M05/M11 A3034 RMK A01 T10521105  RH  066%=      5-min Rain = 0
KPD2 140826Z 12005KT M05/M11 A3034 RMK A01 T10521106  RH  066%=      5-min Rain = 0
KPD2 140827Z 13003KT M05/M11 A3034 RMK A01 T10521106  RH  066%=      5-min Rain = 0
KPD2 140828Z 13004KT M05/M11 A3034 RMK A01 T10521106  RH  066%=      5-min Rain = 0
KPD2 140829Z 14004KT M05/M11 A3034 RMK A01 T10521106  RH  066%=      5-min Rain = 0
KPD2 140830Z 14005KT M05/M11 A3034 RMK A01 T10521106  RH  066%=      5-min Rain = 0
KPD2 140831Z 12005KT M05/M11 A3034 RMK A01 T10521107  RH  065%=      5-min Rain = 0
KPD2 140832Z 13004KT M05/M11 A3034 RMK A01 T10521107  RH  066%=      5-min Rain = 0
KPD2 140833Z 13003KT M05/M11 A3034 RMK A01 T10521106  RH  066%=      5-min Rain = 0
KPD2 140834Z 12004KT M05/M11 A3034 RMK A01 T10521106  RH  066%=      5-min Rain = 0
KPD2 140835Z 13004KT M05/M11 A3034 RMK A01 T10521105  RH  067%=      5-min Rain = 0
KPD2 140836Z 14005KT M05/M11 A3034 RMK A01 T10521105  RH  066%=      5-min Rain = 0
KPD2 140837Z 14005KT M05/M11 A3034 RMK A01 T10521107  RH  066%=      5-min Rain = 0
KPD2 140838Z 12005KT M05/M11 A3034 RMK A01 T10521107  RH  066%=      5-min Rain = 0
KPD2 140839Z 11007KT M05/M11 A3034 RMK A01 T10521106  RH  066%=      5-min Rain = 0
KPD2 140840Z 11007KT M05/M11 A3034 RMK A01 T10521106  RH  066%=      5-min Rain = 0
KPD2 140841Z 12006KT M05/M11 A3034 RMK A01 T10521107  RH  066%=      5-min Rain = 0
KPD2 140842Z 12007KT M05/M11 A3034 RMK A01 T10521106  RH  066%=      5-min Rain = 0
KPD2 140843Z 13006KT M05/M11 A3034 RMK A01 T10521107  RH  066%=      5-min Rain = 0
KPD2 140844Z 13006KT M05/M11 A3034 RMK A01 T10531107  RH  065%=      5-min Rain = 0
KPD2 140845Z 13006KT M05/M11 A3034 RMK A01 T10531107  RH  065%=      5-min Rain = 0
KPD2 140846Z 13005KT M05/M11 A3034 RMK A01 T10531107  RH  066%=      5-min Rain = 0
KPD2 140847Z 13006KT M05/M11 A3034 RMK A01 T10531107  RH  066%=      5-min Rain = 0
KPD2 140848Z 13007KT M05/M11 A3034 RMK A01 T10531107  RH  066%=      5-min Rain = 0
KPD2 140849Z 14005KT M05/M11 A3034 RMK A01 T10531107  RH  066%=      5-min Rain = 0
KPD2 140850Z 13006KT M05/M11 A3034 RMK A01 T10531107  RH  066%=      5-min Rain = 0
KPD2 140851Z 14004KT M05/M11 A3034 RMK A01 T10531107  RH  066%=      5-min Rain = 0
KPD2 140852Z 12004KT M05/M11 A3034 RMK A01 T10531106  RH  066%=      5-min Rain = 0
KPD2 140853Z 14006KT M05/M11 A3034 RMK A01 T10531105  RH  066%=      5-min Rain = 0
KPD2 140854Z 13006KT M05/M11 A3033 RMK A01 T10531106  RH  066%=      5-min Rain = 0
KPD2 140855Z 13005KT M05/M11 A3033 RMK A01 T10531107  RH  066%=      5-min Rain = 0
KPD2 140856Z 12005KT M05/M11 A3033 RMK A01 T10531106  RH  066%=      5-min Rain = 0
KPD2 140857Z 13004KT M05/M11 A3033 RMK A01 T10521106  RH  066%=      5-min Rain = 0
KPD2 140858Z 13004KT M05/M11 A3033 RMK A01 T10531105  RH  067%=      5-min Rain = 0
KPD2 140859Z 13004KT M05/M11 A3033 RMK A01 T10531105  RH  067%=      5-min Rain = 0
KPD2 140900Z 13004KT M05/M11 A3033 RMK A01 T10531105  RH  067%=      5-min Rain = 0
KPD2 140901Z 12006KT M05/M11 A3033 RMK A01 T10531106  RH  066%=      5-min Rain = 0
KPD2 140902Z 12005KT M05/M11 A3033 RMK A01 T10531107  RH  066%=      5-min Rain = 0
KPD2 140903Z 14005KT M05/M11 A3033 RMK A01 T10531106  RH  066%=      5-min Rain = 0
KPD2 140904Z 14007KT M05/M11 A3033 RMK A01 T10531106  RH  066%=      5-min Rain = 0
KPD2 140905Z 13006KT M05/M11 A3033 RMK A01 T10531107  RH  066%=      5-min Rain = 0
KPD2 140906Z 13007KT M05/M11 A3033 RMK A01 T10531107  RH  066%=      5-min Rain = 0
KPD2 140907Z 13006KT M05/M11 A3033 RMK A01 T10541108  RH  066%=      5-min Rain = 0
KPD2 140908Z 14005KT M05/M11 A3033 RMK A01 T10541109  RH  065%=      5-min Rain = 0
KPD2 140909Z 13005KT M05/M11 A3033 RMK A01 T10541108  RH  066%=      5-min Rain = 0
KPD2 140910Z 14005KT M05/M11 A3033 RMK A01 T10541108  RH  066%=      5-min Rain = 0
KPD2 140911Z 14005KT M05/M11 A3033 RMK A01 T10541108  RH  066%=      5-min Rain = 0
KPD2 140912Z 13005KT M05/M11 A3033 RMK A01 T10541107  RH  066%=      5-min Rain = 0
KPD2 140913Z 14006KT M05/M11 A3033 RMK A01 T10541107  RH  066%=      5-min Rain = 0
KPD2 140914Z 13007KT M05/M11 A3033 RMK A01 T10541108  RH  066%=      5-min Rain = 0
KPD2 140915Z 13006KT M05/M11 A3033 RMK A01 T10541107  RH  066%=      5-min Rain = 0
KPD2 140916Z 12006KT M05/M11 A3033 RMK A01 T10541107  RH  066%=      5-min Rain = 0
KPD2 140917Z 12005KT M05/M11 A3033 RMK A01 T10541106  RH  067%=      5-min Rain = 0
KPD2 140918Z 11005KT M05/M11 A3033 RMK A01 T10531105  RH  067%=      5-min Rain = 0
KPD2 140919Z 11007KT M05/M11 A3033 RMK A01 T10531105  RH  067%=      5-min Rain = 0
KPD2 140920Z 12006KT M05/M11 A3033 RMK A01 T10531106  RH  066%=      5-min Rain = 0
KPD2 140921Z 13006KT M05/M11 A3033 RMK A01 T10531107  RH  066%=      5-min Rain = 0
KPD2 140922Z 12004KT M05/M11 A3033 RMK A01 T10531106  RH  066%=      5-min Rain = 0
KPD2 140923Z 14005KT M05/M11 A3033 RMK A01 T10531105  RH  067%=      5-min Rain = 0
KPD2 140924Z 13005KT M05/M11 A3033 RMK A01 T10531105  RH  067%=      5-min Rain = 0
KPD2 140925Z 13005KT M05/M11 A3033 RMK A01 T10531106  RH  067%=      5-min Rain = 0
KPD2 140926Z 12004KT M05/M11 A3033 RMK A01 T10531105  RH  067%=      5-min Rain = 0
KPD2 140927Z 12004KT M05/M10 A3033 RMK A01 T10531104  RH  068%=      5-min Rain = 0
KPD2 140928Z 13004KT M05/M10 A3033 RMK A01 T10531102  RH  068%=      5-min Rain = 0
KPD2 140929Z 12005KT M05/M10 A3033 RMK A01 T10521103  RH  068%=      5-min Rain = 0
KPD2 140930Z 13005KT M05/M10 A3033 RMK A01 T10521103  RH  067%=      5-min Rain = 0
KPD2 140931Z 14004KT M05/M10 A3033 RMK A01 T10521104  RH  067%=      5-min Rain = 0
KPD2 140932Z 13005KT M05/M10 A3033 RMK A01 T10531104  RH  067%=      5-min Rain = 0
KPD2 140933Z 13005KT M05/M11 A3033 RMK A01 T10531105  RH  067%=      5-min Rain = 0
KPD2 140934Z 11004KT M05/M10 A3033 RMK A01 T10531104  RH  067%=      5-min Rain = 0
KPD2 140935Z 11005KT M05/M10 A3033 RMK A01 T10531104  RH  067%=      5-min Rain = 0
KPD2 140936Z 12004KT M05/M10 A3033 RMK A01 T10531104  RH  067%=      5-min Rain = 0
KPD2 140937Z 12006KT M05/M10 A3033 RMK A01 T10531104  RH  067%=      5-min Rain = 0
KPD2 140938Z 12004KT M05/M10 A3033 RMK A01 T10531104  RH  067%=      5-min Rain = 0
KPD2 140939Z 11004KT M05/M10 A3033 RMK A01 T10531103  RH  068%=      5-min Rain = 0
KPD2 140940Z 12005KT M05/M10 A3033 RMK A01 T10531103  RH  068%=      5-min Rain = 0
KPD2 140941Z 12006KT M05/M10 A3033 RMK A01 T10531103  RH  068%=      5-min Rain = 0
KPD2 140942Z 12006KT M05/M10 A3033 RMK A01 T10521103  RH  068%=      5-min Rain = 0
KPD2 140943Z 13006KT M05/M10 A3033 RMK A01 T10521104  RH  067%=      5-min Rain = 0
KPD2 140944Z 13006KT M05/M10 A3033 RMK A01 T10521104  RH  067%=      5-min Rain = 0
KPD2 140945Z 12006KT M05/M10 A3033 RMK A01 T10521103  RH  067%=      5-min Rain = 0
KPD2 140946Z 12006KT M05/M10 A3033 RMK A01 T10521103  RH  067%=      5-min Rain = 0
KPD2 140947Z 12004KT M05/M10 A3033 RMK A01 T10521103  RH  067%=      5-min Rain = 0
KPD2 140948Z 14005KT M05/M10 A3033 RMK A01 T10521103  RH  068%=      5-min Rain = 0
KPD2 140949Z 13006KT M05/M10 A3033 RMK A01 T10521103  RH  068%=      5-min Rain = 0
KPD2 140950Z 13006KT M05/M10 A3033 RMK A01 T10521104  RH  067%=      5-min Rain = 0
KPD2 140951Z 14006KT M05/M10 A3033 RMK A01 T10521104  RH  067%=      5-min Rain = 0
KPD2 140952Z 13006KT M05/M11 A3033 RMK A01 T10531105  RH  066%=      5-min Rain = 0
KPD2 140953Z 13007KT M05/M11 A3033 RMK A01 T10531106  RH  067%=      5-min Rain = 0
KPD2 140954Z 12006KT M05/M11 A3033 RMK A01 T10531106  RH  067%=      5-min Rain = 0
KPD2 140955Z 13005KT M05/M11 A3033 RMK A01 T10531106  RH  067%=      5-min Rain = 0
KPD2 140956Z 13006KT M05/M11 A3033 RMK A01 T10531105  RH  067%=      5-min Rain = 0
KPD2 140957Z 13007KT M05/M11 A3033 RMK A01 T10531105  RH  067%=      5-min Rain = 0
KPD2 140958Z 13006KT M05/M11 A3033 RMK A01 T10531105  RH  067%=      5-min Rain = 0
KPD2 140959Z 12007KT M05/M11 A3033 RMK A01 T10531105  RH  067%=      5-min Rain = 0
KPD2 141000Z 12006KT M05/M11 A3033 RMK A01 T10531105  RH  067%=      5-min Rain = 0
KPD2 141001Z 12006KT M05/M10 A3033 RMK A01 T10531104  RH  067%=      5-min Rain = 0
KPD2 141002Z 13005KT M05/M10 A3033 RMK A01 T10531104  RH  067%=      5-min Rain = 0
KPD2 141003Z 13006KT M05/M10 A3033 RMK A01 T10531104  RH  067%=      5-min Rain = 0
KPD2 141004Z 12006KT M05/M11 A3033 RMK A01 T10531105  RH  067%=      5-min Rain = 0
KPD2 141005Z 13005KT M05/M11 A3033 RMK A01 T10531105  RH  067%=      5-min Rain = 0
KPD2 141006Z 13005KT M05/M10 A3033 RMK A01 T10531104  RH  067%=      5-min Rain = 0
KPD2 141007Z 13004KT M05/M10 A3033 RMK A01 T10531104  RH  067%=      5-min Rain = 0
KPD2 141008Z 13007KT M05/M10 A3033 RMK A01 T10531104  RH  068%=      5-min Rain = 0
KPD2 141009Z 13006KT M05/M10 A3033 RMK A01 T10531104  RH  067%=      5-min Rain = 0
KPD2 141010Z 13006KT M05/M10 A3033 RMK A01 T10531104  RH  067%=      5-min Rain = 0
KPD2 141011Z 13006KT M05/M10 A3033 RMK A01 T10531104  RH  067%=      5-min Rain = 0
KPD2 141012Z 13005KT M05/M10 A3033 RMK A01 T10531104  RH  068%=      5-min Rain = 0
KPD2 141013Z 12007KT M05/M10 A3033 RMK A01 T10531104  RH  068%=      5-min Rain = 0
KPD2 141014Z 13008KT M05/M10 A3033 RMK A01 T10531104  RH  067%=      5-min Rain = 0
KPD2 141015Z 13007KT M05/M11 A3033 RMK A01 T10541105  RH  067%=      5-min Rain = 0
KPD2 141016Z 13007KT M05/M11 A3033 RMK A01 T10541105  RH  067%=      5-min Rain = 0
KPD2 141017Z 12006KT M05/M11 A3033 RMK A01 T10541106  RH  067%=      5-min Rain = 0
KPD2 141018Z 13006KT M05/M10 A3033 RMK A01 T10541104  RH  068%=      5-min Rain = 0
KPD2 141019Z 13007KT M05/M10 A3033 RMK A01 T10541104  RH  068%=      5-min Rain = 0
KPD2 141020Z 13006KT M05/M10 A3033 RMK A01 T10541104  RH  068%=      5-min Rain = 0
KPD2 141021Z 13006KT M05/M11 A3033 RMK A01 T10541105  RH  068%=      5-min Rain = 0
KPD2 141022Z 13007KT M05/M10 A3033 RMK A01 T10541104  RH  068%=      5-min Rain = 0
KPD2 141023Z 13005KT M05/M11 A3033 RMK A01 T10541105  RH  068%=      5-min Rain = 0
KPD2 141024Z 13006KT M05/M11 A3033 RMK A01 T10541105  RH  067%=      5-min Rain = 0
KPD2 141025Z 13006KT M05/M11 A3033 RMK A01 T10541105  RH  068%=      5-min Rain = 0
KPD2 141026Z 12007KT M06/M10 A3033 RMK A01 T10551104  RH  068%=      5-min Rain = 0
KPD2 141027Z 13006KT M06/M10 A3033 RMK A01 T10551104  RH  068%=      5-min Rain = 0
KPD2 141028Z 13005KT M06/M10 A3033 RMK A01 T10551103  RH  069%=      5-min Rain = 0
KPD2 141029Z 13005KT M05/M10 A3033 RMK A01 T10541103  RH  069%=      5-min Rain = 0
KPD2 141030Z 13005KT M05/M10 A3033 RMK A01 T10541103  RH  069%=      5-min Rain = 0
KPD2 141031Z 13007KT M06/M10 A3033 RMK A01 T10551103  RH  069%=      5-min Rain = 0
KPD2 141032Z 12008KT M06/M10 A3033 RMK A01 T10551104  RH  069%=      5-min Rain = 0
KPD2 141033Z 12007KT M05/M10 A3033 RMK A01 T10541104  RH  068%=      5-min Rain = 0
KPD2 141034Z 13007KT M05/M10 A3033 RMK A01 T10541103  RH  069%=      5-min Rain = 0
KPD2 141035Z 12006KT M05/M10 A3032 RMK A01 T10541103  RH  069%=      5-min Rain = 0
KPD2 141036Z 12006KT M06/M10 A3032 RMK A01 T10551104  RH  068%=      5-min Rain = 0
KPD2 141037Z 13005KT M06/M10 A3032 RMK A01 T10551104  RH  068%=      5-min Rain = 0
KPD2 141038Z 14006KT M06/M10 A3032 RMK A01 T10551103  RH  069%=      5-min Rain = 0
KPD2 141039Z 13007KT M06/M10 A3032 RMK A01 T10551104  RH  069%=      5-min Rain = 0
KPD2 141040Z 12007KT M06/M10 A3032 RMK A01 T10551104  RH  068%=      5-min Rain = 0
KPD2 141041Z 13006KT M06/M11 A3032 RMK A01 T10561105  RH  068%=      5-min Rain = 0
KPD2 141042Z 13008KT M06/M10 A3032 RMK A01 T10551104  RH  069%=      5-min Rain = 0
KPD2 141043Z 13005KT M06/M10 A3032 RMK A01 T10551104  RH  069%=      5-min Rain = 0
KPD2 141044Z 14005KT M06/M10 A3032 RMK A01 T10561104  RH  069%=      5-min Rain = 0
KPD2 141045Z 13006KT M06/M10 A3032 RMK A01 T10561104  RH  069%=      5-min Rain = 0
KPD2 141046Z 14005KT M06/M10 A3032 RMK A01 T10551104  RH  069%=      5-min Rain = 0
KPD2 141047Z 13005KT M06/M10 A3032 RMK A01 T10561104  RH  069%=      5-min Rain = 0
KPD2 141048Z 13005KT M06/M10 A3032 RMK A01 T10561103  RH  069%=      5-min Rain = 0
KPD2 141049Z 13007KT M06/M10 A3032 RMK A01 T10561103  RH  069%=      5-min Rain = 0
KPD2 141050Z 13008KT M06/M10 A3032 RMK A01 T10561103  RH  069%=      5-min Rain = 0
KPD2 141051Z 13006KT M06/M10 A3032 RMK A01 T10561103  RH  069%=      5-min Rain = 0
KPD2 141052Z 13006KT M06/M10 A3032 RMK A01 T10561104  RH  069%=      5-min Rain = 0
KPD2 141053Z 12005KT M06/M10 A3032 RMK A01 T10561103  RH  069%=      5-min Rain = 0
KPD2 141054Z 12005KT M06/M10 A3032 RMK A01 T10561103  RH  070%=      5-min Rain = 0
KPD2 141055Z 13007KT M06/M10 A3032 RMK A01 T10551102  RH  070%=      5-min Rain = 0
KPD2 141056Z 13007KT M06/M10 A3032 RMK A01 T10561103  RH  070%=      5-min Rain = 0
KPD2 141057Z 12007KT M06/M10 A3032 RMK A01 T10551103  RH  069%=      5-min Rain = 0
KPD2 141058Z 13007KT M06/M10 A3032 RMK A01 T10551103  RH  069%=      5-min Rain = 0
KPD2 141059Z 13007KT M06/M10 A3032 RMK A01 T10551103  RH  069%=      5-min Rain = 0
KPD2 141100Z 12007KT M06/M10 A3032 RMK A01 T10551103  RH  069%=      5-min Rain = 0
KPD2 141101Z 13006KT M06/M10 A3032 RMK A01 T10561102  RH  070%=      5-min Rain = 0
KPD2 141102Z 14006KT M06/M10 A3032 RMK A01 T10551102  RH  070%=      5-min Rain = 0
KPD2 141103Z 13008KT M06/M10 A3032 RMK A01 T10551103  RH  069%=      5-min Rain = 0
KPD2 141104Z 13006KT M06/M10 A3032 RMK A01 T10551103  RH  069%=      5-min Rain = 0
KPD2 141105Z 14007KT M06/M10 A3032 RMK A01 T10561104  RH  069%=      5-min Rain = 0
KPD2 141106Z 13006KT M06/M10 A3032 RMK A01 T10561104  RH  069%=      5-min Rain = 0
KPD2 141107Z 13006KT M06/M10 A3032 RMK A01 T10561103  RH  069%=      5-min Rain = 0
KPD2 141108Z 13005KT M06/M10 A3032 RMK A01 T10561103  RH  069%=      5-min Rain = 0
KPD2 141109Z 13006KT M06/M10 A3032 RMK A01 T10561103  RH  069%=      5-min Rain = 0
KPD2 141110Z 13005KT M06/M10 A3032 RMK A01 T10561103  RH  069%=      5-min Rain = 0
KPD2 141111Z 12006KT M06/M10 A3032 RMK A01 T10561103  RH  070%=      5-min Rain = 0
KPD2 141112Z 13005KT M06/M10 A3032 RMK A01 T10561102  RH  070%=      5-min Rain = 0
KPD2 141113Z 14006KT M06/M10 A3032 RMK A01 T10551102  RH  070%=      5-min Rain = 0
KPD2 141114Z 13006KT M06/M10 A3032 RMK A01 T10551102  RH  070%=      5-min Rain = 0
KPD2 141115Z 13005KT M06/M10 A3032 RMK A01 T10561103  RH  069%=      5-min Rain = 0
KPD2 141116Z 14006KT M06/M10 A3032 RMK A01 T10561103  RH  069%=      5-min Rain = 0
KPD2 141117Z 14005KT M06/M10 A3032 RMK A01 T10551103  RH  069%=      5-min Rain = 0
KPD2 141118Z 13005KT M06/M10 A3032 RMK A01 T10551102  RH  069%=      5-min Rain = 0
KPD2 141119Z 14005KT M06/M10 A3032 RMK A01 T10551102  RH  070%=      5-min Rain = 0
KPD2 141120Z 13005KT M06/M10 A3032 RMK A01 T10561102  RH  070%=      5-min Rain = 0
KPD2 141121Z 13007KT M06/M10 A3032 RMK A01 T10561102  RH  070%=      5-min Rain = 0
KPD2 141122Z 13007KT M06/M10 A3032 RMK A01 T10551102  RH  069%=      5-min Rain = 0
KPD2 141123Z 12007KT M06/M10 A3032 RMK A01 T10551102  RH  070%=      5-min Rain = 0
KPD2 141124Z 13007KT M06/M10 A3032 RMK A01 T10561103  RH  069%=      5-min Rain = 0
KPD2 141125Z 13006KT M06/M10 A3032 RMK A01 T10551102  RH  070%=      5-min Rain = 0
KPD2 141126Z 13005KT M06/M10 A3032 RMK A01 T10561102  RH  070%=      5-min Rain = 0
KPD2 141127Z 11003KT M06/M10 A3032 RMK A01 T10551102  RH  070%=      5-min Rain = 0
KPD2 141128Z 12007KT M06/M10 A3032 RMK A01 T10551101  RH  070%=      5-min Rain = 0
KPD2 141129Z 12005KT M06/M10 A3032 RMK A01 T10551101  RH  070%=      5-min Rain = 0
KPD2 141130Z 12006KT M06/M10 A3032 RMK A01 T10551101  RH  070%=      5-min Rain = 0
KPD2 141131Z 12005KT M05/M10 A3032 RMK A01 T10541100  RH  070%=      5-min Rain = 0
KPD2 141132Z 13006KT M05/M10 A3032 RMK A01 T10541100  RH  070%=      5-min Rain = 0
KPD2 141133Z 12007KT M06/M10 A3032 RMK A01 T10551101  RH  070%=      5-min Rain = 0
KPD2 141134Z 13006KT M06/M10 A3032 RMK A01 T10551101  RH  070%=      5-min Rain = 0
KPD2 141135Z 13006KT M06/M10 A3032 RMK A01 T10551102  RH  069%=      5-min Rain = 0
KPD2 141136Z 12005KT M06/M10 A3032 RMK A01 T10551102  RH  069%=      5-min Rain = 0
KPD2 141137Z 12006KT M06/M10 A3032 RMK A01 T10551101  RH  070%=      5-min Rain = 0
KPD2 141138Z 12006KT M05/M10 A3032 RMK A01 T10541100  RH  070%=      5-min Rain = 0
KPD2 141139Z 13007KT M06/M10 A3032 RMK A01 T10551100  RH  070%=      5-min Rain = 0
KPD2 141140Z 13006KT M06/M10 A3032 RMK A01 T10551101  RH  070%=      5-min Rain = 0
KPD2 141141Z 12005KT M06/M10 A3032 RMK A01 T10551101  RH  070%=      5-min Rain = 0
KPD2 141142Z 12006KT M05/M10 A3032 RMK A01 T10541100  RH  070%=      5-min Rain = 0
KPD2 141143Z 12007KT M05/M10 A3032 RMK A01 T10541100  RH  070%=      5-min Rain = 0
KPD2 141144Z 13006KT M06/M10 A3032 RMK A01 T10551101  RH  070%=      5-min Rain = 0
KPD2 141145Z 12006KT M06/M10 A3032 RMK A01 T10551102  RH  070%=      5-min Rain = 0
KPD2 141146Z 12007KT M06/M10 A3032 RMK A01 T10551101  RH  070%=      5-min Rain = 0
KPD2 141147Z 12004KT M05/M10 A3032 RMK A01 T10541100  RH  070%=      5-min Rain = 0
KPD2 141148Z 12005KT M06/M10 A3032 RMK A01 T10551100  RH  070%=      5-min Rain = 0
KPD2 141149Z 13005KT M06/M10 A3032 RMK A01 T10551101  RH  070%=      5-min Rain = 0
KPD2 141150Z 13005KT M06/M10 A3032 RMK A01 T10551101  RH  070%=      5-min Rain = 0
KPD2 141151Z 12007KT M06/M10 A3032 RMK A01 T10551101  RH  070%=      5-min Rain = 0
KPD2 141152Z 12005KT M05/M10 A3032 RMK A01 T10541101  RH  070%=      5-min Rain = 0
KPD2 141153Z 12005KT M05/M10 A3032 RMK A01 T10541100  RH  070%=      5-min Rain = 0
KPD2 141154Z 12006KT M05/M10 A3032 RMK A01 T10541099  RH  071%=      5-min Rain = 0
KPD2 141155Z 12005KT M05/M10 A3032 RMK A01 T10541100  RH  070%=      5-min Rain = 0
KPD2 141156Z 12006KT M05/M10 A3032 RMK A01 T10541100  RH  070%=      5-min Rain = 0
KPD2 141157Z 12006KT M05/M10 A3032 RMK A01 T10541101  RH  070%=      5-min Rain = 0
KPD2 141158Z 12006KT M05/M10 A3032 RMK A01 T10541100  RH  070%=      5-min Rain = 0
KPD2 141159Z 12007KT M05/M10 A3032 RMK A01 T10541099  RH  070%=      5-min Rain = 0
KPD2 141200Z 13007KT M05/M10 A3032 RMK A01 T10541100  RH  070%=      5-min Rain = 0
KPD2 141201Z 13006KT M05/M10 A3032 RMK A01 T10541101  RH  069%=      5-min Rain = 0
KPD2 141202Z 12004KT M05/M10 A3032 RMK A01 T10541101  RH  069%=      5-min Rain = 0
KPD2 141203Z 12004KT M05/M10 A3032 RMK A01 T10541101  RH  070%=      5-min Rain = 0
KPD2 141204Z 13005KT M05/M10 A3032 RMK A01 T10541100  RH  070%=      5-min Rain = 0
KPD2 141205Z 13006KT M06/M10 A3032 RMK A01 T10551101  RH  070%=      5-min Rain = 0
KPD2 141206Z 13006KT M05/M10 A3032 RMK A01 T10541101  RH  070%=      5-min Rain = 0
KPD2 141207Z 13006KT M06/M10 A3032 RMK A01 T10551102  RH  070%=      5-min Rain = 0
KPD2 141208Z 13007KT M05/M10 A3032 RMK A01 T10541101  RH  070%=      5-min Rain = 0
KPD2 141209Z 12005KT M05/M10 A3032 RMK A01 T10541102  RH  069%=      5-min Rain = 0
KPD2 141210Z 13005KT M06/M10 A3032 RMK A01 T10551102  RH  070%=      5-min Rain = 0
KPD2 141211Z 13006KT M06/M10 A3032 RMK A01 T10551101  RH  070%=      5-min Rain = 0
KPD2 141212Z 12006KT M06/M10 A3032 RMK A01 T10551100  RH  070%=      5-min Rain = 0
KPD2 141213Z 12005KT M05/M10 A3032 RMK A01 T10541100  RH  070%=      5-min Rain = 0
KPD2 141214Z 12005KT M05/M10 A3032 RMK A01 T10541099  RH  070%=      5-min Rain = 0
KPD2 141215Z 12005KT M05/M10 A3032 RMK A01 T10541099  RH  070%=      5-min Rain = 0
KPD2 141216Z 13005KT M05/M10 A3032 RMK A01 T10541099  RH  070%=      5-min Rain = 0
KPD2 141217Z 13004KT M05/M10 A3032 RMK A01 T10541099  RH  070%=      5-min Rain = 0
KPD2 141218Z 12005KT M05/M10 A3032 RMK A01 T10541099  RH  070%=      5-min Rain = 0
KPD2 141219Z 12007KT M05/M10 A3032 RMK A01 T10541099  RH  070%=      5-min Rain = 0
KPD2 141220Z 12006KT M05/M10 A3032 RMK A01 T10531100  RH  070%=      5-min Rain = 0
KPD2 141221Z 12006KT M05/M10 A3032 RMK A01 T10541100  RH  070%=      5-min Rain = 0
KPD2 141222Z 12005KT M05/M10 A3032 RMK A01 T10541100  RH  070%=      5-min Rain = 0
KPD2 141223Z 12005KT M05/M10 A3032 RMK A01 T10541100  RH  070%=      5-min Rain = 0
KPD2 141224Z 12005KT M05/M10 A3032 RMK A01 T10541099  RH  070%=      5-min Rain = 0
KPD2 141225Z 13004KT M05/M10 A3032 RMK A01 T10541099  RH  070%=      5-min Rain = 0
KPD2 141226Z 13006KT M05/M10 A3032 RMK A01 T10531098  RH  071%=      5-min Rain = 0
KPD2 141227Z 12006KT M05/M10 A3032 RMK A01 T10531098  RH  071%=      5-min Rain = 0
KPD2 141228Z 12006KT M05/M10 A3032 RMK A01 T10531099  RH  070%=      5-min Rain = 0
KPD2 141229Z 13005KT M05/M10 A3032 RMK A01 T10531099  RH  070%=      5-min Rain = 0
KPD2 141230Z 12006KT M05/M10 A3032 RMK A01 T10531099  RH  070%=      5-min Rain = 0
KPD2 141231Z 12006KT M05/M10 A3032 RMK A01 T10531099  RH  070%=      5-min Rain = 0
KPD2 141232Z 12005KT M05/M10 A3032 RMK A01 T10531099  RH  070%=      5-min Rain = 0
KPD2 141233Z 12004KT M05/M10 A3032 RMK A01 T10531099  RH  070%=      5-min Rain = 0
KPD2 141234Z 12005KT M05/M10 A3032 RMK A01 T10531099  RH  070%=      5-min Rain = 0
KPD2 141235Z 12006KT M05/M10 A3032 RMK A01 T10531099  RH  070%=      5-min Rain = 0
KPD2 141236Z 12005KT M05/M10 A3032 RMK A01 T10531098  RH  070%=      5-min Rain = 0
KPD2 141237Z 13005KT M05/M10 A3032 RMK A01 T10531098  RH  071%=      5-min Rain = 0
KPD2 141238Z 12006KT M05/M10 A3032 RMK A01 T10531099  RH  070%=      5-min Rain = 0
KPD2 141239Z 12006KT M05/M10 A3032 RMK A01 T10541099  RH  070%=      5-min Rain = 0
KPD2 141240Z 12007KT M05/M10 A3032 RMK A01 T10541099  RH  070%=      5-min Rain = 0
KPD2 141241Z 13006KT M05/M10 A3032 RMK A01 T10541099  RH  070%=      5-min Rain = 0
KPD2 141242Z 12005KT M05/M10 A3032 RMK A01 T10541099  RH  070%=      5-min Rain = 0
KPD2 141243Z 12006KT M05/M10 A3032 RMK A01 T10541098  RH  071%=      5-min Rain = 0
KPD2 141244Z 12006KT M05/M10 A3032 RMK A01 T10541099  RH  071%=      5-min Rain = 0
KPD2 141245Z 12006KT M05/M10 A3032 RMK A01 T10541099  RH  071%=      5-min Rain = 0
KPD2 141246Z 11005KT M05/M10 A3032 RMK A01 T10541099  RH  071%=      5-min Rain = 0
KPD2 141247Z 12005KT M05/M10 A3032 RMK A01 T10541098  RH  071%=      5-min Rain = 0
KPD2 141248Z 13006KT M05/M10 A3032 RMK A01 T10531097  RH  071%=      5-min Rain = 0
KPD2 141249Z 12007KT M05/M10 A3032 RMK A01 T10541098  RH  071%=      5-min Rain = 0
KPD2 141250Z 12006KT M05/M10 A3032 RMK A01 T10541098  RH  071%=      5-min Rain = 0
KPD2 141251Z 12005KT M05/M10 A3032 RMK A01 T10541098  RH  071%=      5-min Rain = 0
KPD2 141252Z 11006KT M05/M10 A3032 RMK A01 T10541098  RH  071%=      5-min Rain = 0
KPD2 141253Z 12006KT M05/M10 A3032 RMK A01 T10541098  RH  071%=      5-min Rain = 0
KPD2 141254Z 13005KT M05/M10 A3032 RMK A01 T10541097  RH  071%=      5-min Rain = 0
KPD2 141255Z 12005KT M05/M10 A3032 RMK A01 T10531097  RH  071%=      5-min Rain = 0
KPD2 141256Z 12005KT M05/M10 A3032 RMK A01 T10531097  RH  071%=      5-min Rain = 0
KPD2 141257Z 12006KT M05/M10 A3032 RMK A01 T10531097  RH  072%=      5-min Rain = 0
KPD2 141258Z 12007KT M05/M10 A3032 RMK A01 T10531096  RH  072%=      5-min Rain = 0
KPD2 141259Z 13006KT M05/M10 A3032 RMK A01 T10531097  RH  071%=      5-min Rain = 0
KPD2 141300Z 12006KT M05/M10 A3032 RMK A01 T10531098  RH  071%=      5-min Rain = 0
KPD2 141301Z 12006KT M05/M10 A3032 RMK A01 T10541099  RH  071%=      5-min Rain = 0
KPD2 141302Z 12005KT M05/M10 A3032 RMK A01 T10541098  RH  071%=      5-min Rain = 0
KPD2 141303Z 12005KT M05/M10 A3032 RMK A01 T10531097  RH  072%=      5-min Rain = 0
KPD2 141304Z 12007KT M05/M10 A3032 RMK A01 T10531096  RH  072%=      5-min Rain = 0
KPD2 141305Z 12006KT M05/M10 A3032 RMK A01 T10531096  RH  072%=      5-min Rain = 0
KPD2 141306Z 12007KT M05/M10 A3032 RMK A01 T10531097  RH  072%=      5-min Rain = 0
KPD2 141307Z 13007KT M05/M10 A3032 RMK A01 T10531097  RH  071%=      5-min Rain = 0
KPD2 141308Z 12007KT M05/M10 A3032 RMK A01 T10531097  RH  071%=      5-min Rain = 0
KPD2 141309Z 12007KT M05/M10 A3032 RMK A01 T10531098  RH  071%=      5-min Rain = 0
KPD2 141310Z 12005KT M05/M10 A3032 RMK A01 T10531097  RH  071%=      5-min Rain = 0
KPD2 141311Z 12004KT M05/M10 A3032 RMK A01 T10531097  RH  071%=      5-min Rain = 0
KPD2 141312Z 11007KT M05/M10 A3032 RMK A01 T10531095  RH  072%=      5-min Rain = 0
KPD2 141313Z 13004KT M05/M10 A3032 RMK A01 T10531096  RH  072%=      5-min Rain = 0
KPD2 141314Z 12004KT M05/M10 A3032 RMK A01 T10531096  RH  072%=      5-min Rain = 0
KPD2 141315Z 12005KT M05/M10 A3032 RMK A01 T10531096  RH  072%=      5-min Rain = 0
KPD2 141316Z 13004KT M05/M10 A3032 RMK A01 T10531096  RH  072%=      5-min Rain = 0
KPD2 141317Z 13004KT M05/M10 A3032 RMK A01 T10521095  RH  072%=      5-min Rain = 0
KPD2 141318Z 12005KT M05/M10 A3032 RMK A01 T10521095  RH  072%=      5-min Rain = 0
KPD2 141319Z 12005KT M05/M10 A3032 RMK A01 T10521096  RH  072%=      5-min Rain = 0
KPD2 141320Z 12006KT M05/M09 A3032 RMK A01 T10521094  RH  072%=      5-min Rain = 0
KPD2 141321Z 12005KT M05/M10 A3032 RMK A01 T10521095  RH  072%=      5-min Rain = 0
KPD2 141322Z 11004KT M05/M10 A3032 RMK A01 T10521096  RH  072%=      5-min Rain = 0
KPD2 141323Z 12005KT M05/M10 A3032 RMK A01 T10521095  RH  072%=      5-min Rain = 0
KPD2 141324Z 12004KT M05/M09 A3032 RMK A01 T10521094  RH  072%=      5-min Rain = 0
KPD2 141325Z 12005KT M05/M09 A3032 RMK A01 T10521094  RH  072%=      5-min Rain = 0
KPD2 141326Z 12005KT M05/M09 A3032 RMK A01 T10521094  RH  072%=      5-min Rain = 0
KPD2 141327Z 12006KT M05/M10 A3032 RMK A01 T10521095  RH  072%=      5-min Rain = 0
KPD2 141328Z 11005KT M05/M10 A3032 RMK A01 T10521095  RH  072%=      5-min Rain = 0
KPD2 141329Z 12006KT M05/M10 A3032 RMK A01 T10521096  RH  071%=      5-min Rain = 0
KPD2 141330Z 12006KT M05/M10 A3032 RMK A01 T10521096  RH  072%=      5-min Rain = 0
KPD2 141331Z 12007KT M05/M10 A3032 RMK A01 T10521095  RH  072%=      5-min Rain = 0
KPD2 141332Z 13006KT M05/M10 A3032 RMK A01 T10521095  RH  072%=      5-min Rain = 0
KPD2 141333Z 12006KT M05/M10 A3032 RMK A01 T10521095  RH  072%=      5-min Rain = 0
KPD2 141334Z 12006KT M05/M10 A3032 RMK A01 T10521095  RH  072%=      5-min Rain = 0
KPD2 141335Z 13006KT M05/M09 A3032 RMK A01 T10521094  RH  072%=      5-min Rain = 0
KPD2 141336Z 12006KT M05/M10 A3032 RMK A01 T10521095  RH  072%=      5-min Rain = 0
KPD2 141337Z 12006KT M05/M10 A3032 RMK A01 T10521095  RH  072%=      5-min Rain = 0
KPD2 141338Z 12004KT M05/M10 A3032 RMK A01 T10521095  RH  072%=      5-min Rain = 0
KPD2 141339Z 12004KT M05/M09 A3033 RMK A01 T10511094  RH  072%=      5-min Rain = 0
KPD2 141340Z 12005KT M05/M09 A3033 RMK A01 T10511092  RH  073%=      5-min Rain = 0
KPD2 141341Z 12006KT M05/M09 A3033 RMK A01 T10511092  RH  073%=      5-min Rain = 0
KPD2 141342Z 12005KT M05/M09 A3033 RMK A01 T10511092  RH  072%=      5-min Rain = 0
KPD2 141343Z 11005KT M05/M09 A3033 RMK A01 T10511093  RH  072%=      5-min Rain = 0
KPD2 141344Z 11005KT M05/M09 A3033 RMK A01 T10501092  RH  073%=      5-min Rain = 0
KPD2 141345Z 11006KT M05/M09 A3033 RMK A01 T10501092  RH  072%=      5-min Rain = 0
KPD2 141346Z 10005KT M05/M09 A3033 RMK A01 T10501094  RH  072%=      5-min Rain = 0
KPD2 141347Z 11006KT M05/M09 A3033 RMK A01 T10511094  RH  072%=      5-min Rain = 0
KPD2 141348Z 11007KT M05/M09 A3033 RMK A01 T10511094  RH  072%=      5-min Rain = 0
KPD2 141349Z 11007KT M05/M09 A3033 RMK A01 T10501094  RH  072%=      5-min Rain = 0
KPD2 141350Z 11007KT M05/M09 A3033 RMK A01 T10501093  RH  072%=      5-min Rain = 0
KPD2 141351Z 11006KT M05/M09 A3033 RMK A01 T10501094  RH  072%=      5-min Rain = 0
KPD2 141352Z 11006KT M05/M09 A3033 RMK A01 T10501094  RH  072%=      5-min Rain = 0
KPD2 141353Z 12005KT M05/M09 A3033 RMK A01 T10501093  RH  072%=      5-min Rain = 0
KPD2 141354Z 11005KT M05/M09 A3033 RMK A01 T10501092  RH  072%=      5-min Rain = 0
KPD2 141355Z 11006KT M05/M09 A3033 RMK A01 T10491091  RH  072%=      5-min Rain = 0
KPD2 141356Z 12006KT M05/M09 A3033 RMK A01 T10491092  RH  072%=      5-min Rain = 0
KPD2 141357Z 11005KT M05/M09 A3033 RMK A01 T10491092  RH  072%=      5-min Rain = 0
KPD2 141358Z 10004KT M05/M09 A3033 RMK A01 T10491092  RH  072%=      5-min Rain = 0
KPD2 141359Z 11006KT M05/M09 A3033 RMK A01 T10491092  RH  072%=      5-min Rain = 0
KPD2 141400Z 11007KT M05/M09 A3033 RMK A01 T10491092  RH  072%=      5-min Rain = 0
KPD2 141401Z 11006KT M05/M09 A3033 RMK A01 T10491091  RH  072%=      5-min Rain = 0
KPD2 141402Z 11006KT M05/M09 A3033 RMK A01 T10481091  RH  072%=      5-min Rain = 0
KPD2 141403Z 11007KT M05/M09 A3033 RMK A01 T10481091  RH  072%=      5-min Rain = 0
KPD2 141404Z 11007KT M05/M09 A3033 RMK A01 T10481092  RH  072%=      5-min Rain = 0
KPD2 141405Z 11007KT M05/M09 A3033 RMK A01 T10481092  RH  072%=      5-min Rain = 0
KPD2 141406Z 10007KT M05/M09 A3033 RMK A01 T10481091  RH  072%=      5-min Rain = 0
KPD2 141407Z 12005KT M05/M09 A3033 RMK A01 T10481091  RH  072%=      5-min Rain = 0
KPD2 141408Z 12005KT M05/M09 A3033 RMK A01 T10471091  RH  072%=      5-min Rain = 0
KPD2 141409Z 11005KT M05/M09 A3033 RMK A01 T10471091  RH  072%=      5-min Rain = 0
KPD2 141410Z 11007KT M05/M09 A3033 RMK A01 T10471091  RH  071%=      5-min Rain = 0
KPD2 141411Z 10006KT M05/M09 A3033 RMK A01 T10471091  RH  071%=      5-min Rain = 0
KPD2 141412Z 09005KT M05/M09 A3033 RMK A01 T10471091  RH  071%=      5-min Rain = 0
KPD2 141413Z 10005KT M05/M09 A3033 RMK A01 T10471091  RH  071%=      5-min Rain = 0
KPD2 141414Z 11007KT M05/M09 A3033 RMK A01 T10471091  RH  071%=      5-min Rain = 0
KPD2 141415Z 11006KT M05/M09 A3033 RMK A01 T10471091  RH  071%=      5-min Rain = 0
KPD2 141416Z 10005KT M05/M09 A3033 RMK A01 T10471092  RH  071%=      5-min Rain = 0
KPD2 141417Z 11006KT M05/M09 A3033 RMK A01 T10471091  RH  071%=      5-min Rain = 0
KPD2 141418Z 11008KT M05/M09 A3033 RMK A01 T10471091  RH  071%=      5-min Rain = 0
KPD2 141419Z 12008KT M05/M09 A3033 RMK A01 T10461091  RH  071%=      5-min Rain = 0
KPD2 141420Z 11007KT M05/M09 A3033 RMK A01 T10461090  RH  071%=      5-min Rain = 0
KPD2 141421Z 11008KT M05/M09 A3033 RMK A01 T10461090  RH  071%=      5-min Rain = 0
KPD2 141422Z 10007KT M05/M09 A3033 RMK A01 T10461090  RH  071%=      5-min Rain = 0
KPD2 141423Z 11007KT M05/M09 A3033 RMK A01 T10451090  RH  071%=      5-min Rain = 0
KPD2 141424Z 11007KT M05/M09 A3033 RMK A01 T10451090  RH  071%=      5-min Rain = 0
KPD2 141425Z 12007KT M05/M09 A3033 RMK A01 T10451090  RH  071%=      5-min Rain = 0
KPD2 141426Z 12006KT M05/M09 A3033 RMK A01 T10451089  RH  071%=      5-min Rain = 0
KPD2 141427Z 12007KT M05/M09 A3033 RMK A01 T10451089  RH  071%=      5-min Rain = 0
KPD2 141428Z 11004KT M04/M09 A3033 RMK A01 T10441088  RH  071%=      5-min Rain = 0
KPD2 141429Z 11006KT M04/M09 A3033 RMK A01 T10441088  RH  071%=      5-min Rain = 0
KPD2 141430Z 10005KT M04/M09 A3033 RMK A01 T10441088  RH  071%=      5-min Rain = 0
KPD2 141431Z 11007KT M04/M09 A3033 RMK A01 T10441088  RH  071%=      5-min Rain = 0
KPD2 141432Z 11008KT M04/M09 A3033 RMK A01 T10431089  RH  071%=      5-min Rain = 0
KPD2 141433Z 11007KT M04/M09 A3033 RMK A01 T10441090  RH  070%=      5-min Rain = 0
KPD2 141434Z 10006KT M04/M09 A3033 RMK A01 T10441089  RH  070%=      5-min Rain = 0
KPD2 141435Z 11006KT M04/M09 A3033 RMK A01 T10441090  RH  070%=      5-min Rain = 0
KPD2 141436Z 10007KT M04/M09 A3033 RMK A01 T10441089  RH  070%=      5-min Rain = 0
KPD2 141437Z 11007KT M04/M09 A3033 RMK A01 T10441089  RH  071%=      5-min Rain = 0
KPD2 141438Z 11008KT M04/M09 A3033 RMK A01 T10431089  RH  071%=      5-min Rain = 0
KPD2 141439Z 11005KT M04/M09 A3033 RMK A01 T10431089  RH  070%=      5-min Rain = 0
KPD2 141440Z 11008KT M04/M09 A3033 RMK A01 T10431089  RH  070%=      5-min Rain = 0
KPD2 141441Z 11007KT M04/M09 A3033 RMK A01 T10431089  RH  070%=      5-min Rain = 0
KPD2 141442Z 10006KT M04/M09 A3033 RMK A01 T10431089  RH  070%=      5-min Rain = 0
KPD2 141443Z 11007KT M04/M09 A3033 RMK A01 T10431089  RH  070%=      5-min Rain = 0
KPD2 141444Z 11007KT M04/M09 A3033 RMK A01 T10431089  RH  070%=      5-min Rain = 0
KPD2 141445Z 11007KT M04/M09 A3033 RMK A01 T10431089  RH  070%=      5-min Rain = 0
KPD2 141446Z 12007KT M04/M09 A3033 RMK A01 T10421089  RH  070%=      5-min Rain = 0
KPD2 141447Z 12006KT M04/M09 A3033 RMK A01 T10421088  RH  071%=      5-min Rain = 0
KPD2 141448Z 12007KT M04/M09 A3033 RMK A01 T10411087  RH  071%=      5-min Rain = 0
KPD2 141449Z 10004KT M04/M09 A3033 RMK A01 T10411087  RH  070%=      5-min Rain = 0
KPD2 141450Z 11006KT M04/M09 A3033 RMK A01 T10401086  RH  071%=      5-min Rain = 0
KPD2 141451Z 12006KT M04/M09 A3033 RMK A01 T10401085  RH  071%=      5-min Rain = 0
KPD2 141452Z 12006KT M04/M09 A3033 RMK A01 T10391086  RH  070%=      5-min Rain = 0
KPD2 141453Z 11006KT M04/M09 A3033 RMK A01 T10391086  RH  070%=      5-min Rain = 0
KPD2 141454Z 10007KT M04/M09 A3033 RMK A01 T10391086  RH  070%=      5-min Rain = 0
KPD2 141455Z 11006KT M04/M09 A3033 RMK A01 T10401087  RH  070%=      5-min Rain = 0
KPD2 141456Z 10005KT M04/M09 A3033 RMK A01 T10391086  RH  070%=      5-min Rain = 0
KPD2 141457Z 11005KT M04/M09 A3033 RMK A01 T10391086  RH  070%=      5-min Rain = 0
KPD2 141458Z 11006KT M04/M09 A3033 RMK A01 T10391087  RH  069%=      5-min Rain = 0
KPD2 141459Z 10006KT M04/M09 A3033 RMK A01 T10391086  RH  070%=      5-min Rain = 0
KPD2 141500Z 11005KT M04/M09 A3033 RMK A01 T10391086  RH  070%=      5-min Rain = 0
KPD2 141501Z 12006KT M04/M08 A3033 RMK A01 T10381084  RH  070%=      5-min Rain = 0
KPD2 141502Z 11005KT M04/M08 A3033 RMK A01 T10381084  RH  070%=      5-min Rain = 0
KPD2 141503Z 12006KT M04/M08 A3033 RMK A01 T10371084  RH  070%=      5-min Rain = 0
KPD2 141504Z 12007KT M04/M08 A3033 RMK A01 T10371084  RH  070%=      5-min Rain = 0
KPD2 141505Z 12005KT M04/M08 A3033 RMK A01 T10371084  RH  070%=      5-min Rain = 0
KPD2 141506Z 12006KT M04/M08 A3033 RMK A01 T10371084  RH  070%=      5-min Rain = 0
KPD2 141507Z 12006KT M04/M09 A3033 RMK A01 T10371085  RH  070%=      5-min Rain = 0
KPD2 141508Z 12006KT M04/M08 A3033 RMK A01 T10371084  RH  070%=      5-min Rain = 0
KPD2 141509Z 12005KT M04/M08 A3033 RMK A01 T10371084  RH  070%=      5-min Rain = 0
KPD2 141510Z 12006KT M04/M08 A3033 RMK A01 T10361082  RH  070%=      5-min Rain = 0
KPD2 141511Z 12007KT M04/M08 A3033 RMK A01 T10351080  RH  071%=      5-min Rain = 0
KPD2 141512Z 12007KT M04/M08 A3033 RMK A01 T10351082  RH  070%=      5-min Rain = 0
KPD2 141513Z 12005KT M04/M08 A3033 RMK A01 T10351083  RH  070%=      5-min Rain = 0
KPD2 141514Z 11007KT M04/M08 A3033 RMK A01 T10351082  RH  070%=      5-min Rain = 0
KPD2 141515Z 12006KT M04/M08 A3033 RMK A01 T10351081  RH  070%=      5-min Rain = 0
KPD2 141516Z 12008KT M04/M08 A3033 RMK A01 T10351081  RH  070%=      5-min Rain = 0
KPD2 141517Z 12007KT M03/M08 A3033 RMK A01 T10341081  RH  070%=      5-min Rain = 0
KPD2 141518Z 12008KT M03/M08 A3033 RMK A01 T10341082  RH  070%=      5-min Rain = 0
KPD2 141519Z 12006KT M03/M08 A3033 RMK A01 T10341081  RH  070%=      5-min Rain = 0
KPD2 141520Z 12008KT M03/M08 A3033 RMK A01 T10341081  RH  070%=      5-min Rain = 0
KPD2 141521Z 12007KT M03/M08 A3033 RMK A01 T10341080  RH  070%=      5-min Rain = 0
KPD2 141522Z 12008KT M03/M08 A3033 RMK A01 T10331079  RH  070%=      5-min Rain = 0
KPD2 141523Z 12007KT M03/M08 A3033 RMK A01 T10331079  RH  070%=      5-min Rain = 0
KPD2 141524Z 11007KT M03/M08 A3033 RMK A01 T10321079  RH  070%=      5-min Rain = 0
KPD2 141525Z 12006KT M03/M08 A3033 RMK A01 T10321079  RH  070%=      5-min Rain = 0
KPD2 141526Z 13008KT M03/M08 A3033 RMK A01 T10321079  RH  070%=      5-min Rain = 0
KPD2 141527Z 12007KT M03/M08 A3033 RMK A01 T10321080  RH  070%=      5-min Rain = 0
KPD2 141528Z 13008KT M03/M08 A3033 RMK A01 T10321080  RH  070%=      5-min Rain = 0
KPD2 141529Z 11007KT M03/M08 A3033 RMK A01 T10331079  RH  070%=      5-min Rain = 0
KPD2 141530Z 11007KT M03/M08 A3033 RMK A01 T10331079  RH  070%=      5-min Rain = 0
KPD2 141531Z 13006KT M03/M08 A3033 RMK A01 T10331079  RH  070%=      5-min Rain = 0
KPD2 141532Z 12006KT M03/M08 A3033 RMK A01 T10331079  RH  071%=      5-min Rain = 0
KPD2 141533Z 12006KT M03/M08 A3033 RMK A01 T10331079  RH  070%=      5-min Rain = 0
KPD2 141534Z 11007KT M03/M08 A3033 RMK A01 T10321078  RH  071%=      5-min Rain = 0
KPD2 141535Z 12007KT M03/M08 A3033 RMK A01 T10321077  RH  071%=      5-min Rain = 0
KPD2 141536Z 11007KT M03/M08 A3033 RMK A01 T10311078  RH  070%=      5-min Rain = 0
KPD2 141537Z 11006KT M03/M08 A3033 RMK A01 T10311078  RH  070%=      5-min Rain = 0
KPD2 141538Z 11008KT M03/M08 A3033 RMK A01 T10311078  RH  070%=      5-min Rain = 0
KPD2 141539Z 11009KT M03/M08 A3033 RMK A01 T10311078  RH  070%=      5-min Rain = 0
KPD2 141540Z 11008KT M03/M08 A3033 RMK A01 T10311078  RH  070%=      5-min Rain = 0
KPD2 141541Z 12007KT M03/M08 A3033 RMK A01 T10311078  RH  070%=      5-min Rain = 0
KPD2 141542Z 12008KT M03/M08 A3033 RMK A01 T10311078  RH  070%=      5-min Rain = 0
KPD2 141543Z 12008KT M03/M08 A3033 RMK A01 T10311077  RH  070%=      5-min Rain = 0
KPD2 141544Z 12007KT M03/M08 A3033 RMK A01 T10301075  RH  071%=      5-min Rain = 0
KPD2 141545Z 12008KT M03/M07 A3033 RMK A01 T10291074  RH  071%=      5-min Rain = 0
KPD2 141546Z 13008KT M03/M07 A3033 RMK A01 T10281074  RH  071%=      5-min Rain = 0
KPD2 141547Z 12007KT M03/M08 A3033 RMK A01 T10281075  RH  070%=      5-min Rain = 0
KPD2 141548Z 12006KT M03/M08 A3033 RMK A01 T10291075  RH  070%=      5-min Rain = 0
KPD2 141549Z 12007KT M03/M07 A3033 RMK A01 T10291074  RH  071%=      5-min Rain = 0
KPD2 141550Z 12008KT M03/M07 A3032 RMK A01 T10281074  RH  071%=      5-min Rain = 0
KPD2 141551Z 12010KT M03/M07 A3032 RMK A01 T10271073  RH  071%=      5-min Rain = 0
KPD2 141552Z 14005KT M03/M07 A3032 RMK A01 T10271073  RH  071%=      5-min Rain = 0
KPD2 141553Z 13006KT M03/M07 A3032 RMK A01 T10281072  RH  072%=      5-min Rain = 0
KPD2 141554Z 12008KT M03/M07 A3033 RMK A01 T10281072  RH  072%=      5-min Rain = 0
KPD2 141555Z 11008KT M03/M07 A3033 RMK A01 T10281071  RH  072%=      5-min Rain = 0
KPD2 141556Z 10007KT M03/M07 A3032 RMK A01 T10281071  RH  072%=      5-min Rain = 0
KPD2 141557Z 11006KT M03/M07 A3032 RMK A01 T10281070  RH  073%=      5-min Rain = 0
KPD2 141558Z 11007KT M03/M07 A3032 RMK A01 T10271068  RH  073%=      5-min Rain = 0
KPD2 141559Z 12006KT M03/M07 A3033 RMK A01 T10261067  RH  073%=      5-min Rain = 0
KPD2 141600Z 12006KT M03/M07 A3033 RMK A01 T10251066  RH  073%=      5-min Rain = 0
KPD2 141601Z 13006KT M03/M07 A3032 RMK A01 T10251066  RH  073%=      5-min Rain = 0
KPD2 141602Z 11009KT M02/M07 A3032 RMK A01 T10241067  RH  073%=      5-min Rain = 0
KPD2 141603Z 12008KT M03/M07 A3032 RMK A01 T10261069  RH  072%=      5-min Rain = 0
KPD2 141604Z 13008KT M03/M07 A3032 RMK A01 T10261068  RH  073%=      5-min Rain = 0
KPD2 141605Z 13007KT M03/M07 A3032 RMK A01 T10261066  RH  074%=      5-min Rain = 0
KPD2 141606Z 12009KT M03/M07 A3032 RMK A01 T10261065  RH  074%=      5-min Rain = 0
KPD2 141607Z 11006KT M03/M07 A3032 RMK A01 T10251066  RH  074%=      5-min Rain = 0
KPD2 141608Z 12006KT M03/M07 A3032 RMK A01 T10251066  RH  074%=      5-min Rain = 0
KPD2 141609Z 13008KT M03/M07 A3032 RMK A01 T10251066  RH  074%=      5-min Rain = 0
KPD2 141610Z 13006KT M03/M07 A3032 RMK A01 T10251066  RH  074%=      5-min Rain = 0
KPD2 141611Z 12006KT M03/M07 A3032 RMK A01 T10251067  RH  073%=      5-min Rain = 0
KPD2 141612Z 12007KT M03/M07 A3032 RMK A01 T10251066  RH  073%=      5-min Rain = 0
KPD2 141613Z 12007KT M03/M07 A3032 RMK A01 T10251065  RH  074%=      5-min Rain = 0
KPD2 141614Z 12008KT M02/M06 A3032 RMK A01 T10241064  RH  074%=      5-min Rain = 0
KPD2 141615Z 12010KT M02/M06 A3032 RMK A01 T10231063  RH  074%=      5-min Rain = 0
KPD2 141616Z 13008KT M02/M06 A3032 RMK A01 T10231062  RH  074%=      5-min Rain = 0
KPD2 141617Z 13007KT M02/M06 A3032 RMK A01 T10231061  RH  075%=      5-min Rain = 0
KPD2 141618Z 13008KT M02/M06 A3032 RMK A01 T10231060  RH  076%=      5-min Rain = 0
KPD2 141619Z 15006KT M02/M06 A3032 RMK A01 T10221059  RH  076%=      5-min Rain = 0
KPD2 141620Z 15007KT M02/M06 A3032 RMK A01 T10221058  RH  076%=      5-min Rain = 0
KPD2 141621Z 14006KT M02/M06 A3032 RMK A01 T10221058  RH  076%=      5-min Rain = 0
KPD2 141622Z 13007KT M02/M06 A3032 RMK A01 T10231059  RH  076%=      5-min Rain = 0
KPD2 141623Z 12008G13KT M02/M06 A3032 RMK A01 T10231059  RH  076%=      5-min Rain = 0
KPD2 141624Z 17007KT M02/M06 A3032 RMK A01 T10221058  RH  076%=      5-min Rain = 0
KPD2 141625Z 14009KT M02/M06 A3032 RMK A01 T10221058  RH  076%=      5-min Rain = 0
KPD2 141626Z 15005KT M02/M06 A3032 RMK A01 T10231059  RH  076%=      5-min Rain = 0
KPD2 141627Z 13006KT M02/M06 A3032 RMK A01 T10231060  RH  076%=      5-min Rain = 0
KPD2 141628Z 12005KT M02/M06 A3032 RMK A01 T10231059  RH  076%=      5-min Rain = 0
KPD2 141629Z 14010KT M02/M06 A3032 RMK A01 T10231059  RH  076%=      5-min Rain = 0
KPD2 141630Z 16008KT M02/M06 A3032 RMK A01 T10221057  RH  077%=      5-min Rain = 0
KPD2 141631Z 13008KT M02/M06 A3032 RMK A01 T10221057  RH  077%=      5-min Rain = 0
KPD2 141632Z 16005KT M02/M06 A3032 RMK A01 T10231057  RH  077%=      5-min Rain = 0
KPD2 141633Z 13006KT M02/M06 A3032 RMK A01 T10231057  RH  078%=      5-min Rain = 0
KPD2 141634Z 14006KT M02/M06 A3032 RMK A01 T10231056  RH  078%=      5-min Rain = 0
KPD2 141635Z 14007KT M02/M06 A3032 RMK A01 T10221056  RH  078%=      5-min Rain = 0
KPD2 141636Z 16007KT M02/M06 A3032 RMK A01 T10221056  RH  078%=      5-min Rain = 0
KPD2 141637Z 17009KT M02/M06 A3032 RMK A01 T10211056  RH  077%=      5-min Rain = 0
KPD2 141638Z 14006KT M02/M06 A3032 RMK A01 T10221057  RH  077%=      5-min Rain = 0
KPD2 141639Z 14008KT M02/M06 A3032 RMK A01 T10221056  RH  077%=      5-min Rain = 0
KPD2 141640Z 15005KT M02/M06 A3032 RMK A01 T10211055  RH  077%=      5-min Rain = 0
KPD2 141641Z 16007KT M02/M06 A3032 RMK A01 T10201055  RH  077%=      5-min Rain = 0
KPD2 141642Z 17008KT M02/M06 A3032 RMK A01 T10201056  RH  077%=      5-min Rain = 0
KPD2 141643Z 14006KT M02/M06 A3032 RMK A01 T10201056  RH  077%=      5-min Rain = 0
KPD2 141644Z 13007KT M02/M06 A3032 RMK A01 T10211056  RH  077%=      5-min Rain = 0
KPD2 141645Z 13006G11KT M02/M06 A3032 RMK A01 T10201055  RH  077%=      5-min Rain = 0
KPD2 141646Z 13010KT M02/M05 A3032 RMK A01 T10191054  RH  077%=      5-min Rain = 0
KPD2 141647Z 13008KT M02/M05 A3032 RMK A01 T10191054  RH  077%=      5-min Rain = 0
KPD2 141648Z 17009KT M02/M05 A3032 RMK A01 T10191053  RH  077%=      5-min Rain = 0
KPD2 141649Z 15006KT M02/M05 A3032 RMK A01 T10191053  RH  078%=      5-min Rain = 0
KPD2 141650Z 13007KT M02/M05 A3032 RMK A01 T10191052  RH  078%=      5-min Rain = 0
KPD2 141651Z 12008KT M02/M05 A3031 RMK A01 T10181052  RH  078%=      5-min Rain = 0
KPD2 141652Z 12007KT M02/M05 A3031 RMK A01 T10181052  RH  078%=      5-min Rain = 0
KPD2 141653Z 12009KT M02/M05 A3031 RMK A01 T10181052  RH  078%=      5-min Rain = 0
KPD2 141654Z 10009KT M02/M05 A3031 RMK A01 T10181052  RH  078%=      5-min Rain = 0
KPD2 141655Z 12009KT M02/M05 A3031 RMK A01 T10181053  RH  077%=      5-min Rain = 0
KPD2 141656Z 11011KT M02/M05 A3031 RMK A01 T10191053  RH  078%=      5-min Rain = 0
KPD2 141657Z 14012KT M02/M05 A3031 RMK A01 T10191052  RH  078%=      5-min Rain = 0
KPD2 141658Z 14009KT M02/M05 A3031 RMK A01 T10191052  RH  078%=      5-min Rain = 0
KPD2 141659Z 13007KT M02/M05 A3031 RMK A01 T10191052  RH  079%=      5-min Rain = 0
KPD2 141700Z 13011KT M02/M05 A3031 RMK A01 T10191051  RH  079%=      5-min Rain = 0
KPD2 141701Z 13010KT M02/M05 A3031 RMK A01 T10181049  RH  080%=      5-min Rain = 0
KPD2 141702Z 11010G15KT M02/M05 A3031 RMK A01 T10181049  RH  079%=      5-min Rain = 0
KPD2 141703Z 14011KT M02/M05 A3031 RMK A01 T10181048  RH  080%=      5-min Rain = 0
KPD2 141704Z 13004KT M02/M05 A3031 RMK A01 T10171048  RH  080%=      5-min Rain = 0
KPD2 141705Z 13008KT M02/M05 A3031 RMK A01 T10171048  RH  080%=      5-min Rain = 0
KPD2 141706Z 14009KT M02/M05 A3031 RMK A01 T10181048  RH  080%=      5-min Rain = 0
KPD2 141707Z 13004G9KT M02/M05 A303 RMK A01 T10171047  RH  080%=      5-min Rain = 0
KPD2 141708Z 12007KT M02/M05 A303 RMK A01 T10181048  RH  080%=      5-min Rain = 0
KPD2 141709Z 12009KT M02/M05 A303 RMK A01 T10171047  RH  080%=      5-min Rain = 0
KPD2 141710Z 14005KT M02/M05 A303 RMK A01 T10171047  RH  080%=      5-min Rain = 0
KPD2 141711Z 12004KT M02/M05 A303 RMK A01 T10161046  RH  080%=      5-min Rain = 0
KPD2 141712Z 12005KT M02/M05 A303 RMK A01 T10161045  RH  080%=      5-min Rain = 0
KPD2 141713Z 11006KT M01/M05 A303 RMK A01 T10141045  RH  080%=      5-min Rain = 0
KPD2 141714Z 12005KT M01/M05 A303 RMK A01 T10141045  RH  079%=      5-min Rain = 0
KPD2 141715Z 12007KT M01/M05 A303 RMK A01 T10131045  RH  079%=      5-min Rain = 0
KPD2 141716Z 10006KT M01/M05 A303 RMK A01 T10131045  RH  079%=      5-min Rain = 0
KPD2 141717Z 10006KT M01/M05 A303 RMK A01 T10131046  RH  078%=      5-min Rain = 0
KPD2 141718Z 12008KT M01/M05 A303 RMK A01 T10131046  RH  078%=      5-min Rain = 0
KPD2 141719Z 13007KT M01/M05 A303 RMK A01 T10131046  RH  078%=      5-min Rain = 0
KPD2 141720Z 11006KT M01/M05 A303 RMK A01 T10121045  RH  078%=      5-min Rain = 0
KPD2 141721Z 12008KT M01/M05 A303 RMK A01 T10121045  RH  078%=      5-min Rain = 0
KPD2 141722Z 13008KT M01/M04 A303 RMK A01 T10111044  RH  078%=      5-min Rain = 0
KPD2 141723Z 12006KT M01/M05 A3029 RMK A01 T10111045  RH  078%=      5-min Rain = 0
KPD2 141724Z 12009KT M01/M04 A3029 RMK A01 T10101044  RH  078%=      5-min Rain = 0
KPD2 141725Z 13008KT M01/M04 A3029 RMK A01 T10101044  RH  078%=      5-min Rain = 0
KPD2 141726Z 14008KT M01/M04 A3029 RMK A01 T10101044  RH  078%=      5-min Rain = 0
KPD2 141727Z 16008KT M01/M04 A3029 RMK A01 T10101044  RH  078%=      5-min Rain = 0
KPD2 141728Z 12006KT M01/M05 A3029 RMK A01 T10111045  RH  078%=      5-min Rain = 0
KPD2 141729Z 13007KT M01/M04 A3029 RMK A01 T10101043  RH  078%=      5-min Rain = 0
KPD2 141730Z 14009KT M01/M04 A3029 RMK A01 T10091042  RH  078%=      5-min Rain = 0
KPD2 141731Z 14005KT M01/M04 A3029 RMK A01 T10081042  RH  078%=      5-min Rain = 0
KPD2 141732Z 13007KT M01/M04 A3029 RMK A01 T10091042  RH  078%=      5-min Rain = 0
KPD2 141733Z 14008KT M01/M04 A3029 RMK A01 T10081042  RH  078%=      5-min Rain = 0
KPD2 141734Z 13007KT M01/M04 A3029 RMK A01 T10081042  RH  078%=      5-min Rain = 0
KPD2 141735Z 15007KT M01/M04 A3029 RMK A01 T10081042  RH  078%=      5-min Rain = 0
KPD2 141736Z 18004KT M01/M04 A3029 RMK A01 T10081041  RH  078%=      5-min Rain = 0
KPD2 141737Z 18004KT M01/M04 A3029 RMK A01 T10071040  RH  078%=      5-min Rain = 0
KPD2 141738Z 11005KT M01/M04 A3029 RMK A01 T10071040  RH  078%=      5-min Rain = 0
KPD2 141739Z 14007KT M01/M04 A3029 RMK A01 T10051039  RH  078%=      5-min Rain = 0
KPD2 141740Z 14004KT M01/M04 A3029 RMK A01 T10051040  RH  077%=      5-min Rain = 0
KPD2 141741Z 14006KT M01/M04 A3029 RMK A01 T10051040  RH  078%=      5-min Rain = 0
KPD2 141742Z 12006KT M01/M04 A3029 RMK A01 T10051040  RH  078%=      5-min Rain = 0
KPD2 141743Z 13003KT M00/M04 A3029 RMK A01 T10041039  RH  078%=      5-min Rain = 0
KPD2 141744Z 11005KT M00/M04 A3029 RMK A01 T10041040  RH  077%=      5-min Rain = 0
KPD2 141745Z 12004KT M00/M04 A3028 RMK A01 T10041039  RH  077%=      5-min Rain = 0
KPD2 141746Z 12007G12KT M00/M04 A3028 RMK A01 T10021036  RH  078%=      5-min Rain = 0
KPD2 141747Z 12009KT M00/M04 A3028 RMK A01 T10011036  RH  077%=      5-min Rain = 0
KPD2 141748Z 12006KT M00/M04 A3028 RMK A01 T10021037  RH  077%=      5-min Rain = 0
KPD2 141749Z 13008KT M00/M04 A3028 RMK A01 T10021037  RH  077%=      5-min Rain = 0
KPD2 141750Z 14005KT M00/M04 A3028 RMK A01 T10021037  RH  077%=      5-min Rain = 0
KPD2 141751Z 14002KT M00/M04 A3028 RMK A01 T10031038  RH  077%=      5-min Rain = 0
KPD2 141752Z 15005KT M00/M04 A3028 RMK A01 T10031038  RH  077%=      5-min Rain = 0
KPD2 141753Z 17004KT M00/M04 A3028 RMK A01 T10031038  RH  077%=      5-min Rain = 0
KPD2 141754Z 13003KT M00/M04 A3028 RMK A01 T10031037  RH  078%=      5-min Rain = 0
KPD2 141755Z 16007KT M00/M04 A3028 RMK A01 T10021036  RH  078%=      5-min Rain = 0
KPD2 141756Z 13007KT M00/M04 A3028 RMK A01 T10021037  RH  077%=      5-min Rain = 0
KPD2 141757Z 13006KT M00/M04 A3028 RMK A01 T10021037  RH  078%=      5-min Rain = 0
KPD2 141758Z 13008KT M00/M04 A3028 RMK A01 T10011036  RH  077%=      5-min Rain = 0
KPD2 141759Z 15007KT M00/M04 A3028 RMK A01 T10011035  RH  078%=      5-min Rain = 0
KPD2 141800Z 12005KT 00/03 A3028 RMK A01 T00-00-34  RH  078%=      5-min Rain = 0
KPD2 141801Z 12003KT 00/M03 A3028 RMK A01 T00011034  RH  078%=      5-min Rain = 0
KPD2 141802Z 11004KT 00/M03 A3028 RMK A01 T00011034  RH  077%=      5-min Rain = 0
KPD2 141803Z 11002KT 00/M03 A3028 RMK A01 T00011034  RH  077%=      5-min Rain = 0
KPD2 141804Z 09002KT 00/M03 A3028 RMK A01 T00011034  RH  077%=      5-min Rain = 0
KPD2 141805Z 09004KT 00/M03 A3028 RMK A01 T00021033  RH  077%=      5-min Rain = 0
KPD2 141806Z 15006KT 00/M03 A3028 RMK A01 T00031032  RH  077%=      5-min Rain = 0
KPD2 141807Z 17004KT 00/M03 A3028 RMK A01 T00031033  RH  077%=      5-min Rain = 0
KPD2 141808Z 13006G11KT 00/M03 A3028 RMK A01 T00031033  RH  077%=      5-min Rain = 0
KPD2 141809Z 16003KT 00/M03 A3028 RMK A01 T00031033  RH  077%=      5-min Rain = 0
KPD2 141810Z 19004KT 00/M03 A3028 RMK A01 T00021033  RH  077%=      5-min Rain = 0
KPD2 141811Z 15004KT 00/M03 A3027 RMK A01 T00021033  RH  078%=      5-min Rain = 0
KPD2 141812Z 16002KT 00/M03 A3027 RMK A01 T00021031  RH  078%=      5-min Rain = 0
KPD2 141813Z 20001KT 00/M03 A3027 RMK A01 T00031030  RH  078%=      5-min Rain = 0
KPD2 141814Z 27003KT 00/M03 A3027 RMK A01 T00041030  RH  077%=      5-min Rain = 0
KPD2 141815Z 22002KT 01/M03 A3027 RMK A01 T00061029  RH  077%=      5-min Rain = 0
KPD2 141816Z 22003KT 01/M03 A3027 RMK A01 T00061030  RH  077%=      5-min Rain = 0
KPD2 141817Z 24002KT 01/M03 A3027 RMK A01 T00051031  RH  077%=      5-min Rain = 0
KPD2 141818Z 21002KT 01/M03 A3027 RMK A01 T00051030  RH  077%=      5-min Rain = 0
KPD2 141819Z 24004KT 01/M03 A3027 RMK A01 T00051031  RH  077%=      5-min Rain = 0
KPD2 141820Z 24003KT 01/M03 A3027 RMK A01 T00051031  RH  077%=      5-min Rain = 0
KPD2 141821Z 17002KT 01/M03 A3027 RMK A01 T00051031  RH  077%=      5-min Rain = 0
KPD2 141822Z 17004KT 01/M03 A3027 RMK A01 T00051030  RH  077%=      5-min Rain = 0
KPD2 141823Z 16005KT 01/M03 A3027 RMK A01 T00051030  RH  077%=      5-min Rain = 0
KPD2 141824Z 15003KT 01/M03 A3027 RMK A01 T00061029  RH  077%=      5-min Rain = 0
KPD2 141825Z 22001KT 01/M03 A3026 RMK A01 T00061029  RH  077%=      5-min Rain = 0
KPD2 141826Z 14002KT 01/M03 A3026 RMK A01 T00071027  RH  078%=      5-min Rain = 0
KPD2 141827Z 16004KT 01/M03 A3026 RMK A01 T00081027  RH  077%=      5-min Rain = 0
KPD2 141828Z 20003KT 01/M03 A3026 RMK A01 T00081028  RH  077%=      5-min Rain = 0
KPD2 141829Z 15006G12KT 01/M03 A3026 RMK A01 T00081027  RH  077%=      5-min Rain = 0
KPD2 141830Z 13008G13KT 01/M03 A3026 RMK A01 T00081028  RH  077%=      5-min Rain = 0
KPD2 141831Z 15007KT 01/M03 A3026 RMK A01 T00071029  RH  077%=      5-min Rain = 0
KPD2 141832Z 17003KT 01/M03 A3026 RMK A01 T00061029  RH  077%=      5-min Rain = 0
KPD2 141833Z 19007KT 01/M03 A3026 RMK A01 T00061029  RH  078%=      5-min Rain = 0
KPD2 141834Z 19006G11KT 01/M03 A3026 RMK A01 T00061028  RH  078%=      5-min Rain = 0
KPD2 141835Z 18006KT 01/M03 A3026 RMK A01 T00061028  RH  078%=      5-min Rain = 0
KPD2 141836Z 21004KT 01/M03 A3025 RMK A01 T00071027  RH  078%=      5-min Rain = 0
KPD2 141837Z 23005KT 01/M03 A3025 RMK A01 T00081026  RH  078%=      5-min Rain = 0
KPD2 141838Z 23004KT 01/M03 A3025 RMK A01 T00091025  RH  078%=      5-min Rain = 0
KPD2 141839Z 22004KT 01/M03 A3025 RMK A01 T00091026  RH  078%=      5-min Rain = 0
KPD2 141840Z 14006KT 01/M03 A3025 RMK A01 T00101025  RH  077%=      5-min Rain = 0
KPD2 141841Z 15003KT 01/M03 A3025 RMK A01 T00101026  RH  077%=      5-min Rain = 0
KPD2 141842Z 18004KT 01/M03 A3025 RMK A01 T00101025  RH  077%=      5-min Rain = 0
KPD2 141843Z 19004KT 01/M03 A3025 RMK A01 T00111026  RH  077%=      5-min Rain = 0
KPD2 141844Z 22002KT 01/M03 A3025 RMK A01 T00091027  RH  077%=      5-min Rain = 0
KPD2 141845Z 18005KT 01/M03 A3025 RMK A01 T00091026  RH  077%=      5-min Rain = 0
KPD2 141846Z 21006KT 01/M03 A3025 RMK A01 T00091025  RH  078%=      5-min Rain = 0
KPD2 141847Z 24002G8KT 01/M02 A3025 RMK A01 T00101024  RH  078%=      5-min Rain = 0
KPD2 141848Z 23004KT 01/M02 A3025 RMK A01 T00111024  RH  077%=      5-min Rain = 0
KPD2 141849Z 21004KT 01/M03 A3024 RMK A01 T00111025  RH  077%=      5-min Rain = 0
KPD2 141850Z 23006KT 01/M02 A3024 RMK A01 T00121024  RH  077%=      5-min Rain = 0
KPD2 141851Z 13004KT 01/M02 A3024 RMK A01 T00131023  RH  077%=      5-min Rain = 0
KPD2 141852Z 15007KT 01/M02 A3024 RMK A01 T00141022  RH  077%=      5-min Rain = 0
KPD2 141853Z 15006KT 01/M02 A3024 RMK A01 T00141023  RH  076%=      5-min Rain = 0
KPD2 141854Z 16007G12KT 01/M02 A3024 RMK A01 T00131024  RH  076%=      5-min Rain = 0
KPD2 141855Z 21005KT 01/M03 A3024 RMK A01 T00121025  RH  076%=      5-min Rain = 0
KPD2 141856Z 18004KT 01/M03 A3024 RMK A01 T00111025  RH  077%=      5-min Rain = 0
KPD2 141857Z 19003KT 01/M02 A3024 RMK A01 T00111024  RH  077%=      5-min Rain = 0
KPD2 141858Z 16004KT 01/M02 A3024 RMK A01 T00111024  RH  078%=      5-min Rain = 0
KPD2 141859Z 23004KT 01/M02 A3024 RMK A01 T00111024  RH  077%=      5-min Rain = 0
KPD2 141900Z 17003KT 01/M02 A3024 RMK A01 T00111024  RH  078%=      5-min Rain = 0
KPD2 141901Z 18002KT 01/M02 A3024 RMK A01 T00111024  RH  077%=      5-min Rain = 0
KPD2 141902Z 15004KT 01/M02 A3024 RMK A01 T00111024  RH  077%=      5-min Rain = 0
KPD2 141903Z 19004KT 01/M02 A3024 RMK A01 T00121023  RH  078%=      5-min Rain = 0
KPD2 141904Z 25002KT 01/M02 A3024 RMK A01 T00131022  RH  078%=      5-min Rain = 0
KPD2 141905Z 15005KT 01/M02 A3024 RMK A01 T00131022  RH  077%=      5-min Rain = 0
KPD2 141906Z 16004KT 01/M02 A3024 RMK A01 T00141022  RH  077%=      5-min Rain = 0
KPD2 141907Z 13004G9KT 01/M02 A3024 RMK A01 T00141022  RH  077%=      5-min Rain = 0
KPD2 141908Z 15009G15KT 01/M02 A3024 RMK A01 T00141022  RH  077%=      5-min Rain = 0
KPD2 141909Z 14009KT 01/M02 A3024 RMK A01 T00141022  RH  077%=      5-min Rain = 0
KPD2 141910Z 19005KT 01/M02 A3024 RMK A01 T00131023  RH  077%=      5-min Rain = 0
KPD2 141911Z 20003KT 01/M02 A3024 RMK A01 T00121024  RH  077%=      5-min Rain = 0
KPD2 141912Z 19004KT 01/M02 A3024 RMK A01 T00121023  RH  078%=      5-min Rain = 0
KPD2 141913Z 22003KT 01/M02 A3024 RMK A01 T00131022  RH  078%=      5-min Rain = 0
KPD2 141914Z 20004KT 01/M02 A3024 RMK A01 T00131022  RH  078%=      5-min Rain = 0
KPD2 141915Z 19005KT 01/M02 A3024 RMK A01 T00141022  RH  077%=      5-min Rain = 0
KPD2 141916Z 21008KT 01/M02 A3024 RMK A01 T00131022  RH  077%=      5-min Rain = 0
KPD2 141917Z 18005G10KT 01/M02 A3023 RMK A01 T00131022  RH  077%=      5-min Rain = 0
KPD2 141918Z 17004KT 01/M02 A3023 RMK A01 T00131022  RH  077%=      5-min Rain = 0
KPD2 141919Z 19007KT 01/M02 A3023 RMK A01 T00131022  RH  078%=      5-min Rain = 0
KPD2 141920Z 21005KT 01/M02 A3023 RMK A01 T00141022  RH  077%=      5-min Rain = 0
KPD2 141921Z 17005KT 01/M02 A3023 RMK A01 T00131022  RH  077%=      5-min Rain = 0
KPD2 141922Z 16008KT 01/M02 A3024 RMK A01 T00131021  RH  078%=      5-min Rain = 0
KPD2 141923Z 17005G10KT 01/M02 A3023 RMK A01 T00131021  RH  078%=      5-min Rain = 0
KPD2 141924Z 22007G12KT 01/M02 A3023 RMK A01 T00141021  RH  078%=      5-min Rain = 0
KPD2 141925Z 22006KT 01/M02 A3023 RMK A01 T00131021  RH  078%=      5-min Rain = 0
KPD2 141926Z 19004KT 01/M02 A3023 RMK A01 T00131022  RH  078%=      5-min Rain = 0
KPD2 141927Z 19005KT 01/M02 A3023 RMK A01 T00141021  RH  078%=      5-min Rain = 0
KPD2 141928Z 20009KT 01/M02 A3023 RMK A01 T00141021  RH  078%=      5-min Rain = 0
KPD2 141929Z 19008KT 01/M02 A3023 RMK A01 T00141020  RH  078%=      5-min Rain = 0
KPD2 141930Z 21008KT 01/M02 A3023 RMK A01 T00141020  RH  078%=      5-min Rain = 0
KPD2 141931Z 20005KT 01/M02 A3023 RMK A01 T00141020  RH  078%=      5-min Rain = 0
KPD2 141932Z 21005KT 01/M02 A3023 RMK A01 T00141020  RH  078%=      5-min Rain = 0
KPD2 141933Z 22008G13KT 01/M02 A3022 RMK A01 T00131020  RH  078%=      5-min Rain = 0
KPD2 141934Z 21011G17KT 01/M02 A3022 RMK A01 T00141019  RH  079%=      5-min Rain = 0
KPD2 141935Z 22004KT 01/M02 A3022 RMK A01 T00141019  RH  078%=      5-min Rain = 0
KPD2 141936Z 19003KT 01/M02 A3022 RMK A01 T00141019  RH  078%=      5-min Rain = 0
KPD2 141937Z 17008KT 01/M02 A3023 RMK A01 T00141019  RH  078%=      5-min Rain = 0
KPD2 141938Z 21008KT 01/M02 A3023 RMK A01 T00141020  RH  078%=      5-min Rain = 0
KPD2 141939Z 19004KT 01/M02 A3022 RMK A01 T00141020  RH  078%=      5-min Rain = 0
KPD2 141940Z 13002G8KT 01/M02 A3022 RMK A01 T00131020  RH  078%=      5-min Rain = 0
KPD2 141941Z 14009KT 01/M02 A3022 RMK A01 T00131019  RH  079%=      5-min Rain = 0
KPD2 141942Z 16011G16KT 01/M02 A3022 RMK A01 T00141019  RH  079%=      5-min Rain = 0
KPD2 141943Z 16008KT 02/M02 A3022 RMK A01 T00151018  RH  079%=      5-min Rain = 0
KPD2 141944Z 19007KT 01/M02 A3022 RMK A01 T00141019  RH  078%=      5-min Rain = 0
KPD2 141945Z 21006KT 01/M02 A3022 RMK A01 T00141019  RH  079%=      5-min Rain = 0
KPD2 141946Z 20004KT 01/M02 A3022 RMK A01 T00131019  RH  079%=      5-min Rain = 0
KPD2 141947Z 20006KT 01/M02 A3022 RMK A01 T00141018  RH  079%=      5-min Rain = 0
KPD2 141948Z 21006KT 02/M02 A3022 RMK A01 T00151017  RH  079%=      5-min Rain = 0
KPD2 141949Z 23006G12KT 02/M02 A3022 RMK A01 T00161018  RH  078%=      5-min Rain = 0
KPD2 141950Z 23006KT 02/M02 A3021 RMK A01 T00161018  RH  078%=      5-min Rain = 0
KPD2 141951Z 16004KT 02/M02 A3021 RMK A01 T00161017  RH  078%=      5-min Rain = 0
KPD2 141952Z 15006KT 02/M02 A3021 RMK A01 T00171017  RH  078%=      5-min Rain = 0
KPD2 141953Z 20004KT 02/M02 A3021 RMK A01 T00171017  RH  078%=      5-min Rain = 0
KPD2 141954Z 25002KT 02/M02 A3021 RMK A01 T00171017  RH  078%=      5-min Rain = 0
KPD2 141955Z 19002KT 02/M02 A3021 RMK A01 T00171018  RH  078%=      5-min Rain = 0
KPD2 141956Z 21001KT 02/M02 A3021 RMK A01 T00161018  RH  078%=      5-min Rain = 0
KPD2 141957Z 26002KT 02/M02 A3021 RMK A01 T00161017  RH  078%=      5-min Rain = 0
KPD2 141958Z 32001KT 02/M02 A3021 RMK A01 T00171016  RH  078%=      5-min Rain = 0
KPD2 141959Z 10004KT 02/M02 A3021 RMK A01 T00181016  RH  078%=      5-min Rain = 0
KPD2 142000Z 10003KT 02/M02 A302 RMK A01 T00181016  RH  078%=      5-min Rain = 0
KPD2 142001Z 13008KT 02/M02 A3021 RMK A01 T00191015  RH  078%=      5-min Rain = 0
KPD2 142002Z 16004KT 02/M02 A3021 RMK A01 T00201015  RH  078%=      5-min Rain = 0
KPD2 142003Z 16003KT 02/M02 A3021 RMK A01 T00201016  RH  077%=      5-min Rain = 0
KPD2 142004Z 18005KT 02/M02 A3021 RMK A01 T00201016  RH  077%=      5-min Rain = 0
KPD2 142005Z 15006G11KT 02/M02 A302 RMK A01 T00191017  RH  077%=      5-min Rain = 0
KPD2 142006Z 14007KT 02/M02 A302 RMK A01 T00191016  RH  078%=      5-min Rain = 0
KPD2 142007Z 16009KT 02/M02 A302 RMK A01 T00181016  RH  078%=      5-min Rain = 0
KPD2 142008Z 16006KT 02/M02 A302 RMK A01 T00191015  RH  078%=      5-min Rain = 0
KPD2 142009Z 17006KT 02/M02 A302 RMK A01 T00191016  RH  078%=      5-min Rain = 0
KPD2 142010Z 18005KT 02/M02 A302 RMK A01 T00191015  RH  078%=      5-min Rain = 0
KPD2 142011Z 15002KT 02/M02 A302 RMK A01 T00191015  RH  078%=      5-min Rain = 0
KPD2 142012Z 22005G10KT 02/M02 A302 RMK A01 T00201015  RH  078%=      5-min Rain = 0
KPD2 142013Z 24004G9KT 02/M02 A302 RMK A01 T00201016  RH  077%=      5-min Rain = 0
KPD2 142014Z 22008G13KT 02/M02 A302 RMK A01 T00201016  RH  077%=      5-min Rain = 0
KPD2 142015Z 23004KT 02/M02 A302 RMK A01 T00201016  RH  077%=      5-min Rain = 0
KPD2 142016Z 23005KT 02/M02 A302 RMK A01 T00211015  RH  077%=      5-min Rain = 0
KPD2 142017Z 25006KT 02/M02 A3019 RMK A01 T00211016  RH  077%=      5-min Rain = 0
KPD2 142018Z 15002KT 02/M02 A3019 RMK A01 T00211016  RH  077%=      5-min Rain = 0
KPD2 142019Z 12004KT 02/M02 A3019 RMK A01 T00201016  RH  077%=      5-min Rain = 0
KPD2 142020Z 16003KT 02/M01 A3019 RMK A01 T00211014  RH  077%=      5-min Rain = 0
KPD2 142021Z 17004KT 02/M01 A3019 RMK A01 T00221014  RH  077%=      5-min Rain = 0
KPD2 142022Z 20004KT 02/M02 A3019 RMK A01 T00221015  RH  077%=      5-min Rain = 0
KPD2 142023Z 20003KT 02/M02 A3019 RMK A01 T00221015  RH  077%=      5-min Rain = 0
KPD2 142024Z 16006KT 02/M02 A3019 RMK A01 T00211015  RH  077%=      5-min Rain = 0
KPD2 142025Z 15006KT 02/M01 A3019 RMK A01 T00221014  RH  077%=      5-min Rain = 0
KPD2 142026Z 16004KT 02/M01 A3019 RMK A01 T00221014  RH  077%=      5-min Rain = 0
KPD2 142027Z 15003KT 02/M02 A3019 RMK A01 T00221015  RH  077%=      5-min Rain = 0
KPD2 142028Z 23006KT 02/M02 A3019 RMK A01 T00211015  RH  077%=      5-min Rain = 0
KPD2 142029Z 21004KT 02/M02 A3019 RMK A01 T00201016  RH  077%=      5-min Rain = 0
KPD2 142030Z 18002KT 02/M02 A3019 RMK A01 T00211015  RH  077%=      5-min Rain = 0
KPD2 142031Z 23005KT 02/M02 A3019 RMK A01 T00201015  RH  077%=      5-min Rain = 0
KPD2 142032Z 14007KT 02/M01 A3019 RMK A01 T00211014  RH  078%=      5-min Rain = 0
KPD2 142033Z 17007KT 02/M01 A3019 RMK A01 T00221014  RH  077%=      5-min Rain = 0
KPD2 142034Z 20007KT 02/M02 A302 RMK A01 T00211015  RH  077%=      5-min Rain = 0
KPD2 142035Z 19004KT 02/M02 A3019 RMK A01 T00211015  RH  077%=      5-min Rain = 0
KPD2 142036Z 16007KT 02/M02 A3019 RMK A01 T00201015  RH  078%=      5-min Rain = 0
KPD2 142037Z 15007KT 02/M02 A3019 RMK A01 T00201015  RH  078%=      5-min Rain = 0
KPD2 142038Z 12007KT 02/M02 A3019 RMK A01 T00201015  RH  078%=      5-min Rain = 0
KPD2 142039Z 14005KT 02/M01 A3019 RMK A01 T00201014  RH  078%=      5-min Rain = 0
KPD2 142040Z 16004KT 02/M02 A3019 RMK A01 T00201015  RH  078%=      5-min Rain = 0
KPD2 142041Z 12006KT 02/M01 A3019 RMK A01 T00211013  RH  078%=      5-min Rain = 0
KPD2 142042Z 11004KT 02/M01 A3018 RMK A01 T00221013  RH  078%=      5-min Rain = 0
KPD2 142043Z 11005KT 02/M01 A3018 RMK A01 T00221012  RH  078%=      5-min Rain = 0
KPD2 142044Z 12006KT 02/M01 A3018 RMK A01 T00231012  RH  078%=      5-min Rain = 0
KPD2 142045Z 13007KT 02/M01 A3018 RMK A01 T00231012  RH  077%=      5-min Rain = 0
KPD2 142046Z 11006KT 02/M01 A3018 RMK A01 T00241012  RH  077%=      5-min Rain = 0
KPD2 142047Z 14007KT 02/M01 A3018 RMK A01 T00231012  RH  077%=      5-min Rain = 0
KPD2 142048Z 14009KT 02/M01 A3018 RMK A01 T00231012  RH  077%=      5-min Rain = 0
KPD2 142049Z 14008KT 02/M01 A3018 RMK A01 T00231012  RH  077%=      5-min Rain = 0
KPD2 142050Z 17007KT 02/M01 A3018 RMK A01 T00231012  RH  078%=      5-min Rain = 0
KPD2 142051Z 20008KT 02/M01 A3018 RMK A01 T00231012  RH  078%=      5-min Rain = 0
KPD2 142052Z 23008G14KT 02/M01 A3018 RMK A01 T00231012  RH  078%=      5-min Rain = 0
KPD2 142053Z 22006KT 02/M01 A3018 RMK A01 T00221012  RH  078%=      5-min Rain = 0
KPD2 142054Z 20007KT 02/M01 A3018 RMK A01 T00221012  RH  078%=      5-min Rain = 0
KPD2 142055Z 17006KT 02/M01 A3018 RMK A01 T00221012  RH  078%=      5-min Rain = 0
KPD2 142056Z 15007KT 02/M01 A3018 RMK A01 T00221012  RH  078%=      5-min Rain = 0
KPD2 142057Z 15009KT 02/M01 A3018 RMK A01 T00221011  RH  079%=      5-min Rain = 0
KPD2 142058Z 19004KT 02/M01 A3018 RMK A01 T00231012  RH  078%=      5-min Rain = 0
KPD2 142059Z 16001KT 02/M01 A3018 RMK A01 T00221012  RH  078%=      5-min Rain = 0
KPD2 142100Z 16005KT 02/M01 A3017 RMK A01 T00221011  RH  079%=      5-min Rain = 0
KPD2 142101Z 13004KT 02/M01 A3017 RMK A01 T00221011  RH  079%=      5-min Rain = 0
KPD2 142102Z 14004KT 02/M01 A3017 RMK A01 T00231010  RH  079%=      5-min Rain = 0
KPD2 142103Z 17007KT 02/M01 A3017 RMK A01 T00231011  RH  078%=      5-min Rain = 0
KPD2 142104Z 18011KT 02/M01 A3017 RMK A01 T00231011  RH  078%=      5-min Rain = 0
KPD2 142105Z 22009KT 02/M01 A3017 RMK A01 T00231011  RH  078%=      5-min Rain = 0
KPD2 142106Z 21009KT 02/M01 A3017 RMK A01 T00231011  RH  078%=      5-min Rain = 0
KPD2 142107Z 21004KT 02/M01 A3017 RMK A01 T00221012  RH  078%=      5-min Rain = 0
KPD2 142108Z 11001KT 02/M01 A3017 RMK A01 T00221011  RH  079%=      5-min Rain = 0
KPD2 142109Z 15002KT 02/M01 A3017 RMK A01 T00231010  RH  079%=      5-min Rain = 0
KPD2 142110Z 12004KT 02/M01 A3017 RMK A01 T00241009  RH  079%=      5-min Rain = 0
KPD2 142111Z 13006KT 02/M01 A3017 RMK A01 T00241009  RH  078%=      5-min Rain = 0
KPD2 142112Z 15008KT 03/M01 A3017 RMK A01 T00251010  RH  078%=      5-min Rain = 0
KPD2 142113Z 17004G9KT 03/M01 A3016 RMK A01 T00251010  RH  078%=      5-min Rain = 0
KPD2 142114Z 18003KT 02/M01 A3016 RMK A01 T00241010  RH  078%=      5-min Rain = 0
KPD2 142115Z 19004KT 02/M01 A3016 RMK A01 T00241010  RH  078%=      5-min Rain = 0
KPD2 142116Z 18003KT 02/M01 A3016 RMK A01 T00241010  RH  078%=      5-min Rain = 0
KPD2 142117Z 21002KT 02/M01 A3016 RMK A01 T00241010  RH  078%=      5-min Rain = 0
KPD2 142118Z 17003KT 03/M01 A3016 RMK A01 T00251009  RH  078%=      5-min Rain = 0
KPD2 142119Z 14006G11KT 03/M01 A3016 RMK A01 T00251009  RH  078%=      5-min Rain = 0
KPD2 142120Z 15008KT 03/M01 A3016 RMK A01 T00251009  RH  078%=      5-min Rain = 0
KPD2 142121Z 17007KT 03/M01 A3016 RMK A01 T00251009  RH  078%=      5-min Rain = 0
KPD2 142122Z 13006KT 03/M01 A3016 RMK A01 T00251009  RH  078%=      5-min Rain = 0
KPD2 142123Z 13007KT 03/M01 A3016 RMK A01 T00251008  RH  078%=      5-min Rain = 0
KPD2 142124Z 15008KT 03/M01 A3016 RMK A01 T00251009  RH  078%=      5-min Rain = 0
KPD2 142125Z 13006KT 03/M01 A3016 RMK A01 T00251009  RH  078%=      5-min Rain = 0
KPD2 142126Z 11005KT 03/M01 A3016 RMK A01 T00251009  RH  078%=      5-min Rain = 0
KPD2 142127Z 15006KT 03/M01 A3016 RMK A01 T00251009  RH  079%=      5-min Rain = 0
KPD2 142128Z 17004KT 03/M01 A3016 RMK A01 T00251007  RH  079%=      5-min Rain = 0
KPD2 142129Z 16005KT 03/M01 A3016 RMK A01 T00271006  RH  079%=      5-min Rain = 0
KPD2 142130Z 14008KT 03/M01 A3016 RMK A01 T00271008  RH  078%=      5-min Rain = 0
KPD2 142131Z 15007KT 03/M01 A3016 RMK A01 T00271008  RH  078%=      5-min Rain = 0
KPD2 142132Z 18004KT 03/M01 A3016 RMK A01 T00271009  RH  077%=      5-min Rain = 0
KPD2 142133Z 17005KT 03/M01 A3016 RMK A01 T00261009  RH  078%=      5-min Rain = 0
KPD2 142134Z 22010KT 03/M01 A3015 RMK A01 T00261008  RH  078%=      5-min Rain = 0
KPD2 142135Z 22009KT 03/M01 A3016 RMK A01 T00271008  RH  078%=      5-min Rain = 0
KPD2 142136Z 19006KT 03/M01 A3016 RMK A01 T00271007  RH  078%=      5-min Rain = 0
KPD2 142137Z 17004KT 03/M01 A3015 RMK A01 T00281007  RH  078%=      5-min Rain = 0
KPD2 142138Z 18003KT 03/M01 A3015 RMK A01 T00281008  RH  077%=      5-min Rain = 0
KPD2 142139Z 20001KT 03/M01 A3015 RMK A01 T00281008  RH  077%=      5-min Rain = 0
KPD2 142140Z 17002KT 03/M01 A3015 RMK A01 T00281007  RH  078%=      5-min Rain = 0
KPD2 142141Z 21000KT 03/M01 A3015 RMK A01 T00281006  RH  078%=      5-min Rain = 0
KPD2 142142Z 19003KT 03/M01 A3015 RMK A01 T00301005  RH  078%=      5-min Rain = 0
KPD2 142143Z 14007KT 03/M01 A3015 RMK A01 T00301005  RH  077%=      5-min Rain = 0
KPD2 142144Z 17005KT 03/M01 A3015 RMK A01 T00301007  RH  077%=      5-min Rain = 0
KPD2 142145Z 20004KT 03/M01 A3015 RMK A01 T00291008  RH  077%=      5-min Rain = 0
KPD2 142146Z 20001KT 03/M01 A3015 RMK A01 T00281008  RH  077%=      5-min Rain = 0
KPD2 142147Z 18003KT 03/M01 A3015 RMK A01 T00281008  RH  077%=      5-min Rain = 0
KPD2 142148Z 17003KT 03/M01 A3015 RMK A01 T00281007  RH  078%=      5-min Rain = 0
KPD2 142149Z 14005KT 03/M01 A3015 RMK A01 T00281006  RH  078%=      5-min Rain = 0
KPD2 142150Z 12003KT 03/M01 A3015 RMK A01 T00291006  RH  078%=      5-min Rain = 0
KPD2 142151Z 13007KT 03/M01 A3015 RMK A01 T00301006  RH  077%=      5-min Rain = 0
KPD2 142152Z 13008KT 03/M01 A3015 RMK A01 T00301006  RH  077%=      5-min Rain = 0
KPD2 142153Z 12009KT 03/M01 A3015 RMK A01 T00301006  RH  077%=      5-min Rain = 0
KPD2 142154Z 17006KT 03/M01 A3015 RMK A01 T00301005  RH  078%=      5-min Rain = 0
KPD2 142155Z 20007KT 03/M01 A3015 RMK A01 T00301005  RH  078%=      5-min Rain = 0
KPD2 142156Z 17004KT 03/M01 A3015 RMK A01 T00301006  RH  077%=      5-min Rain = 0
KPD2 142157Z 24004KT 03/M01 A3014 RMK A01 T00301006  RH  077%=      5-min Rain = 0
KPD2 142158Z 21005KT 03/M01 A3014 RMK A01 T00301006  RH  077%=      5-min Rain = 0
KPD2 142159Z 17006KT 03/M01 A3014 RMK A01 T00301006  RH  077%=      5-min Rain = 0
KPD2 142200Z 21004KT 03/M01 A3014 RMK A01 T00301006  RH  077%=      5-min Rain = 0
KPD2 142201Z 20006KT 03/M01 A3014 RMK A01 T00301007  RH  077%=      5-min Rain = 0
KPD2 142202Z 19006KT 03/M01 A3014 RMK A01 T00291007  RH  077%=      5-min Rain = 0
KPD2 142203Z 21008KT 03/M01 A3014 RMK A01 T00291006  RH  078%=      5-min Rain = 0
KPD2 142204Z 20003KT 03/M01 A3014 RMK A01 T00301006  RH  077%=      5-min Rain = 0
KPD2 142205Z 13001KT 03/M01 A3014 RMK A01 T00301007  RH  077%=      5-min Rain = 0
KPD2 142206Z 13004KT 03/M01 A3014 RMK A01 T00301006  RH  078%=      5-min Rain = 0
KPD2 142207Z 16003KT 03/M01 A3014 RMK A01 T00301005  RH  078%=      5-min Rain = 0
KPD2 142208Z 18003KT 03/M01 A3014 RMK A01 T00301006  RH  077%=      5-min Rain = 0
KPD2 142209Z 17003KT 03/M01 A3014 RMK A01 T00301005  RH  077%=      5-min Rain = 0
KPD2 142210Z 17003KT 03/M01 A3014 RMK A01 T00301005  RH  077%=      5-min Rain = 0
KPD2 142211Z 12005KT 03/M01 A3014 RMK A01 T00311005  RH  077%=      5-min Rain = 0
KPD2 142212Z 11004KT 03/M01 A3014 RMK A01 T00311005  RH  077%=      5-min Rain = 0
KPD2 142213Z 18005KT 03/M01 A3015 RMK A01 T00311005  RH  077%=      5-min Rain = 0
KPD2 142214Z 18002G7KT 03/M01 A3015 RMK A01 T00311005  RH  077%=      5-min Rain = 0
KPD2 142215Z 35002KT 03/M01 A3014 RMK A01 T00301006  RH  077%=      5-min Rain = 0
KPD2 142216Z 13005G11KT 03/M01 A3015 RMK A01 T00301005  RH  077%=      5-min Rain = 0
KPD2 142217Z 16011G17KT 03/M01 A3015 RMK A01 T00301006  RH  078%=      5-min Rain = 0
KPD2 142218Z 15008KT 03/M01 A3015 RMK A01 T00301005  RH  078%=      5-min Rain = 0
KPD2 142219Z 16006KT 03/M01 A3015 RMK A01 T00291006  RH  078%=      5-min Rain = 0
KPD2 142220Z 14005KT 03/M01 A3014 RMK A01 T00291006  RH  078%=      5-min Rain = 0
KPD2 142221Z 20006KT 03/M01 A3015 RMK A01 T00291005  RH  078%=      5-min Rain = 0
KPD2 142222Z 18005KT 03/M01 A3015 RMK A01 T00291005  RH  078%=      5-min Rain = 0
KPD2 142223Z 16001KT 03/M01 A3015 RMK A01 T00291005  RH  078%=      5-min Rain = 0
KPD2 142224Z 23005G10KT 03/M01 A3014 RMK A01 T00291006  RH  078%=      5-min Rain = 0
KPD2 142225Z 21008KT 03/M01 A3014 RMK A01 T00291005  RH  078%=      5-min Rain = 0
KPD2 142226Z 21007KT 03/M01 A3014 RMK A01 T00301005  RH  078%=      5-min Rain = 0
KPD2 142227Z 21009G14KT 03/M01 A3014 RMK A01 T00301005  RH  078%=      5-min Rain = 0
KPD2 142228Z 26006KT 03/M00 A3014 RMK A01 T00301004  RH  078%=      5-min Rain = 0
KPD2 142229Z 25004KT 03/M01 A3014 RMK A01 T00301005  RH  078%=      5-min Rain = 0
KPD2 142230Z 17003KT 03/M01 A3014 RMK A01 T00311005  RH  078%=      5-min Rain = 0
KPD2 142231Z 18001KT 03/M01 A3014 RMK A01 T00311005  RH  078%=      5-min Rain = 0
KPD2 142232Z 16002KT 03/M00 A3014 RMK A01 T00311004  RH  078%=      5-min Rain = 0
KPD2 142233Z 24001KT 03/M01 A3014 RMK A01 T00311005  RH  077%=      5-min Rain = 0
KPD2 142234Z 16002KT 03/M01 A3014 RMK A01 T00311005  RH  077%=      5-min Rain = 0
KPD2 142235Z 14004KT 03/M01 A3014 RMK A01 T00311005  RH  078%=      5-min Rain = 0
KPD2 142236Z 13008KT 03/M00 A3014 RMK A01 T00311004  RH  078%=      5-min Rain = 0
KPD2 142237Z 16006KT 03/M00 A3014 RMK A01 T00321003  RH  078%=      5-min Rain = 0
KPD2 142238Z 14006KT 03/M00 A3014 RMK A01 T00321004  RH  077%=      5-min Rain = 0
KPD2 142239Z 14008KT 03/M00 A3014 RMK A01 T00311004  RH  078%=      5-min Rain = 0
KPD2 142240Z 14005KT 03/M00 A3014 RMK A01 T00311004  RH  078%=      5-min Rain = 0
KPD2 142241Z 11003G10KT 03/M00 A3014 RMK A01 T00311004  RH  078%=      5-min Rain = 0
KPD2 142242Z 12008KT 03/M00 A3014 RMK A01 T00311004  RH  078%=      5-min Rain = 0
KPD2 142243Z 11010KT 03/M00 A3014 RMK A01 T00311003  RH  078%=      5-min Rain = 0
KPD2 142244Z 12009G15KT 03/M00 A3014 RMK A01 T00311004  RH  078%=      5-min Rain = 0
KPD2 142245Z 14011G18KT 03/M00 A3014 RMK A01 T00311003  RH  078%=      5-min Rain = 0
KPD2 142246Z 18007KT 03/M00 A3014 RMK A01 T00301003  RH  078%=      5-min Rain = 0
KPD2 142247Z 18003KT 03/M00 A3014 RMK A01 T00301004  RH  078%=      5-min Rain = 0
KPD2 142248Z 13002KT 03/M00 A3014 RMK A01 T00301004  RH  079%=      5-min Rain = 0
KPD2 142249Z 11004KT 03/M00 A3014 RMK A01 T00291004  RH  079%=      5-min Rain = 0
KPD2 142250Z 14007KT 03/M00 A3014 RMK A01 T00301004  RH  079%=      5-min Rain = 0
KPD2 142251Z 17006KT 03/M00 A3014 RMK A01 T00291004  RH  079%=      5-min Rain = 0
KPD2 142252Z 19003KT 03/M00 A3014 RMK A01 T00291004  RH  079%=      5-min Rain = 0
KPD2 142253Z 18001KT 03/M00 A3014 RMK A01 T00291004  RH  079%=      5-min Rain = 0
KPD2 142254Z 17005KT 03/M00 A3014 RMK A01 T00281004  RH  079%=      5-min Rain = 0
KPD2 142255Z 17007KT 03/M00 A3014 RMK A01 T00291003  RH  079%=      5-min Rain = 0
KPD2 142256Z 17006KT 03/M00 A3014 RMK A01 T00291004  RH  079%=      5-min Rain = 0
KPD2 142257Z 19005KT 03/M00 A3014 RMK A01 T00291004  RH  079%=      5-min Rain = 0
KPD2 142258Z 22004KT 03/M00 A3014 RMK A01 T00291004  RH  079%=      5-min Rain = 0
KPD2 142259Z 24005KT 03/M00 A3014 RMK A01 T00291004  RH  079%=      5-min Rain = 0
KPD2 142300Z 11005KT 03/M00 A3014 RMK A01 T00291004  RH  079%=      5-min Rain = 0
KPD2 142301Z 14010KT 03/M00 A3014 RMK A01 T00291003  RH  079%=      5-min Rain = 0
KPD2 142302Z 14006KT 03/M00 A3014 RMK A01 T00291003  RH  079%=      5-min Rain = 0
KPD2 142303Z 13005KT 03/M00 A3014 RMK A01 T00291003  RH  079%=      5-min Rain = 0
KPD2 142304Z 12007KT 03/M00 A3014 RMK A01 T00291003  RH  079%=      5-min Rain = 0
KPD2 142305Z 14006KT 03/M00 A3013 RMK A01 T00291003  RH  080%=      5-min Rain = 0
KPD2 142306Z 16004KT 03/M00 A3014 RMK A01 T00291003  RH  080%=      5-min Rain = 0
KPD2 142307Z 14006G11KT 03/M00 A3014 RMK A01 T00291003  RH  080%=      5-min Rain = 0
KPD2 142308Z 18007KT 03/M00 A3014 RMK A01 T00291002  RH  080%=      5-min Rain = 0
KPD2 142309Z 18007KT 03/M00 A3014 RMK A01 T00291002  RH  080%=      5-min Rain = 0
KPD2 142310Z 16006G11KT 03/M00 A3014 RMK A01 T00291003  RH  080%=      5-min Rain = 0
KPD2 142311Z 15004KT 03/M00 A3013 RMK A01 T00291003  RH  079%=      5-min Rain = 0
KPD2 142312Z 17003KT 03/M00 A3013 RMK A01 T00291003  RH  079%=      5-min Rain = 0
KPD2 142313Z 14002KT 03/M00 A3013 RMK A01 T00291002  RH  080%=      5-min Rain = 0
KPD2 142314Z 13004KT 03/M00 A3013 RMK A01 T00291003  RH  080%=      5-min Rain = 0
KPD2 142315Z 14006KT 03/M00 A3013 RMK A01 T00291003  RH  080%=      5-min Rain = 0
KPD2 142316Z 12004KT 03/M00 A3013 RMK A01 T00291003  RH  080%=      5-min Rain = 0
KPD2 142317Z 19005KT 03/M00 A3014 RMK A01 T00291003  RH  080%=      5-min Rain = 0
KPD2 142318Z 23008G13KT 03/M00 A3014 RMK A01 T00291003  RH  080%=      5-min Rain = 0
KPD2 142319Z 17005G10KT 03/M00 A3014 RMK A01 T00291003  RH  080%=      5-min Rain = 0
KPD2 142320Z 13005KT 03/M00 A3013 RMK A01 T00291002  RH  080%=      5-min Rain = 0
KPD2 142321Z 21004KT 03/M00 A3013 RMK A01 T00301002  RH  080%=      5-min Rain = 0
KPD2 142322Z 21004KT 03/M00 A3013 RMK A01 T00291003  RH  079%=      5-min Rain = 0
KPD2 142323Z 13005KT 03/M00 A3013 RMK A01 T00301003  RH  079%=      5-min Rain = 0
KPD2 142324Z 22005G12KT 03/M00 A3013 RMK A01 T00301003  RH  079%=      5-min Rain = 0
KPD2 142325Z 19004G10KT 03/M00 A3013 RMK A01 T00301003  RH  079%=      5-min Rain = 0
KPD2 142326Z 15005G10KT 03/M00 A3013 RMK A01 T00291003  RH  079%=      5-min Rain = 0
KPD2 142327Z 16008G13KT 03/M00 A3013 RMK A01 T00301002  RH  079%=      5-min Rain = 0
KPD2 142328Z 14007KT 03/M00 A3013 RMK A01 T00301002  RH  080%=      5-min Rain = 0
KPD2 142329Z 16008KT 03/M00 A3013 RMK A01 T00301002  RH  080%=      5-min Rain = 0
KPD2 142330Z 15010KT 03/M00 A3013 RMK A01 T00301002  RH  079%=      5-min Rain = 0
KPD2 142331Z 16007KT 03/M00 A3013 RMK A01 T00301002  RH  079%=      5-min Rain = 0
KPD2 142332Z 16006KT 03/M00 A3013 RMK A01 T00301002  RH  079%=      5-min Rain = 0
KPD2 142333Z 16009G14KT 03/M00 A3013 RMK A01 T00301002  RH  080%=      5-min Rain = 0
KPD2 142334Z 16006KT 03/M00 A3013 RMK A01 T00301002  RH  080%=      5-min Rain = 0
KPD2 142335Z 14006KT 03/M00 A3013 RMK A01 T00301002  RH  080%=      5-min Rain = 0
KPD2 142336Z 15008KT 03/M00 A3013 RMK A01 T00301001  RH  080%=      5-min Rain = 0
KPD2 142337Z 15008KT 03/M00 A3013 RMK A01 T00301002  RH  080%=      5-min Rain = 0
KPD2 142338Z 14011G19KT 03/M00 A3013 RMK A01 T00301002  RH  080%=      5-min Rain = 0
KPD2 142339Z 17004KT 03/M00 A3013 RMK A01 T00301001  RH  080%=      5-min Rain = 0
KPD2 142340Z 16004KT 03/M00 A3013 RMK A01 T00301001  RH  080%=      5-min Rain = 0
KPD2 142341Z 14008G13KT 03/M00 A3013 RMK A01 T00301001  RH  080%=      5-min Rain = 0
KPD2 142342Z 13007KT 03/M00 A3013 RMK A01 T00301001  RH  080%=      5-min Rain = 0
KPD2 142343Z 14010KT 03/M00 A3013 RMK A01 T00291001  RH  080%=      5-min Rain = 0
KPD2 142344Z 13010KT 03/M00 A3013 RMK A01 T00291001  RH  080%=      5-min Rain = 0
KPD2 142345Z 14011KT 03/M00 A3013 RMK A01 T00291001  RH  081%=      5-min Rain = 0
KPD2 142346Z 14010KT 03/M00 A3013 RMK A01 T00291001  RH  081%=      5-min Rain = 0
KPD2 142347Z 15006G11KT 03/M00 A3013 RMK A01 T00291001  RH  081%=      5-min Rain = 0
KPD2 142348Z 15007KT 03/M00 A3013 RMK A01 T00291002  RH  081%=      5-min Rain = 0
KPD2 142349Z 15007KT 03/M00 A3013 RMK A01 T00281002  RH  081%=      5-min Rain = 0
KPD2 142350Z 17009KT 03/M00 A3013 RMK A01 T00281001  RH  081%=      5-min Rain = 0
KPD2 142351Z 17009G14KT 03/M00 A3013 RMK A01 T00281002  RH  081%=      5-min Rain = 0
KPD2 142352Z 15010KT 03/M00 A3013 RMK A01 T00281002  RH  081%=      5-min Rain = 0
KPD2 142353Z 18007KT 03/M00 A3013 RMK A01 T00281002  RH  081%=      5-min Rain = 0
KPD2 142354Z 19005KT 03/M00 A3013 RMK A01 T00281002  RH  081%=      5-min Rain = 0
KPD2 142355Z 21010KT 03/M00 A3013 RMK A01 T00281002  RH  081%=      5-min Rain = 0
KPD2 142356Z 22004KT 03/M00 A3013 RMK A01 T00281002  RH  081%=      5-min Rain = 0
KPD2 142357Z 18004KT 03/M00 A3013 RMK A01 T00281002  RH  081%=      5-min Rain = 0
KPD2 142358Z 16004KT 03/M00 A3013 RMK A01 T00281002  RH  081%=      5-min Rain = 0
KPD2 142359Z 17006KT 03/M00 A3013 RMK A01 T00281002  RH  081%=      5-min Rain = 0
KPD2 150000Z 18003KT 03/M00 A3013 RMK A01 T00281001  RH  081%=      5-min Rain = 0
KPD2 150001Z 18002KT 03/M00 A3013 RMK A01 T00271002  RH  081%=      5-min Rain = 0
KPD2 150002Z 19002KT 03/M00 A3013 RMK A01 T00271002  RH  081%=      5-min Rain = 0
KPD2 150003Z 15003KT 03/M00 A3013 RMK A01 T00271002  RH  081%=      5-min Rain = 0
KPD2 150004Z 15005KT 03/M00 A3013 RMK A01 T00271002  RH  081%=      5-min Rain = 0
KPD2 150005Z 15004KT 03/M00 A3013 RMK A01 T00271002  RH  081%=      5-min Rain = 0
KPD2 150006Z 18004KT 03/M00 A3013 RMK A01 T00271002  RH  081%=      5-min Rain = 0
KPD2 150007Z 17003KT 03/M00 A3013 RMK A01 T00271002  RH  081%=      5-min Rain = 0
KPD2 150008Z 17003KT 03/M00 A3013 RMK A01 T00271002  RH  081%=      5-min Rain = 0
KPD2 150009Z 14004KT 03/M00 A3013 RMK A01 T00271002  RH  081%=      5-min Rain = 0
KPD2 150010Z 16008KT 03/M00 A3013 RMK A01 T00271002  RH  081%=      5-min Rain = 0
KPD2 150011Z 20007KT 03/M00 A3013 RMK A01 T00271002  RH  082%=      5-min Rain = 0
KPD2 150012Z 17006KT 03/M00 A3013 RMK A01 T00261002  RH  082%=      5-min Rain = 0
KPD2 150013Z 21009G15KT 03/M00 A3013 RMK A01 T00261002  RH  082%=      5-min Rain = 0
KPD2 150014Z 18007G12KT 03/M00 A3013 RMK A01 T00261002  RH  082%=      5-min Rain = 0
KPD2 150015Z 17003G8KT 03/M00 A3013 RMK A01 T00261002  RH  082%=      5-min Rain = 0
KPD2 150016Z 15009G14KT 03/M00 A3013 RMK A01 T00261003  RH  082%=      5-min Rain = 0
KPD2 150017Z 21006G12KT 03/M00 A3013 RMK A01 T00261002  RH  082%=      5-min Rain = 0
KPD2 150018Z 19008KT 03/M00 A3013 RMK A01 T00261002  RH  082%=      5-min Rain = 0
KPD2 150019Z 17005KT 03/M00 A3013 RMK A01 T00261003  RH  082%=      5-min Rain = 0
KPD2 150020Z 21005G10KT 03/M00 A3013 RMK A01 T00261003  RH  082%=      5-min Rain = 0
KPD2 150021Z 14007G12KT 03/M00 A3013 RMK A01 T00251003  RH  082%=      5-min Rain = 0
KPD2 150022Z 14005KT 03/M00 A3013 RMK A01 T00261003  RH  082%=      5-min Rain = 0
KPD2 150023Z 15005G10KT 03/M00 A3013 RMK A01 T00251003  RH  082%=      5-min Rain = 0
KPD2 150024Z 16004KT 03/M00 A3013 RMK A01 T00251002  RH  082%=      5-min Rain = 0
KPD2 150025Z 16006KT 03/M00 A3013 RMK A01 T00251003  RH  082%=      5-min Rain = 0
KPD2 150026Z 17004KT 03/M00 A3013 RMK A01 T00251002  RH  082%=      5-min Rain = 0
KPD2 150027Z 20003KT 03/M00 A3013 RMK A01 T00251002  RH  082%=      5-min Rain = 0
KPD2 150028Z 20002KT 03/M00 A3013 RMK A01 T00251002  RH  082%=      5-min Rain = 0
KPD2 150029Z 13004KT 03/M00 A3013 RMK A01 T00251003  RH  082%=      5-min Rain = 0
KPD2 150030Z 14003KT 03/M00 A3013 RMK A01 T00251003  RH  082%=      5-min Rain = 0
KPD2 150031Z 19002KT 02/M00 A3013 RMK A01 T00241003  RH  082%=      5-min Rain = 0
KPD2 150032Z 17002KT 03/M00 A3013 RMK A01 T00251003  RH  082%=      5-min Rain = 0
KPD2 150033Z 21006KT 02/M00 A3013 RMK A01 T00241003  RH  082%=      5-min Rain = 0
KPD2 150034Z 20006G13KT 02/M00 A3013 RMK A01 T00241004  RH  082%=      5-min Rain = 0
KPD2 150035Z 19010KT 02/M00 A3013 RMK A01 T00241004  RH  082%=      5-min Rain = 0
KPD2 150036Z 19008KT 02/M00 A3013 RMK A01 T00241004  RH  082%=      5-min Rain = 0
KPD2 150037Z 20006G12KT 02/M00 A3013 RMK A01 T00241004  RH  082%=      5-min Rain = 0
KPD2 150038Z 21010G15KT 02/M00 A3013 RMK A01 T00241004  RH  082%=      5-min Rain = 0
KPD2 150039Z 15005KT 02/M00 A3013 RMK A01 T00241004  RH  082%=      5-min Rain = 0
KPD2 150040Z 16005KT 02/M00 A3013 RMK A01 T00241004  RH  082%=      5-min Rain = 0
KPD2 150041Z 15004KT 02/M00 A3013 RMK A01 T00241004  RH  082%=      5-min Rain = 0
KPD2 150042Z 18003G9KT 02/M00 A3013 RMK A01 T00241004  RH  082%=      5-min Rain = 0
KPD2 150043Z 15004KT 02/M00 A3013 RMK A01 T00241004  RH  082%=      5-min Rain = 0
KPD2 150044Z 17003KT 02/M00 A3013 RMK A01 T00231004  RH  082%=      5-min Rain = 0
KPD2 150045Z 14005KT 02/M00 A3013 RMK A01 T00231004  RH  082%=      5-min Rain = 0
KPD2 150046Z 14008KT 02/M00 A3013 RMK A01 T00231004  RH  082%=      5-min Rain = 0
KPD2 150047Z 16006KT 02/M00 A3013 RMK A01 T00241004  RH  082%=      5-min Rain = 0
KPD2 150048Z 16007KT 02/M00 A3013 RMK A01 T00231004  RH  082%=      5-min Rain = 0
KPD2 150049Z 15006KT 02/M00 A3013 RMK A01 T00241003  RH  082%=      5-min Rain = 0
KPD2 150050Z 16006KT 02/M00 A3013 RMK A01 T00241003  RH  083%=      5-min Rain = 0
KPD2 150051Z 19004KT 02/M00 A3013 RMK A01 T00231003  RH  083%=      5-min Rain = 0
KPD2 150052Z 21006KT 02/M00 A3013 RMK A01 T00231003  RH  083%=      5-min Rain = 0
KPD2 150053Z 14010G15KT 02/M00 A3013 RMK A01 T00231004  RH  083%=      5-min Rain = 0
KPD2 150054Z 14010KT 02/M00 A3012 RMK A01 T00231004  RH  083%=      5-min Rain = 0
KPD2 150055Z 17009KT 02/M00 A3013 RMK A01 T00231003  RH  083%=      5-min Rain = 0
KPD2 150056Z 18006KT 02/M00 A3013 RMK A01 T00231004  RH  083%=      5-min Rain = 0
KPD2 150057Z 17006KT 02/M00 A3013 RMK A01 T00231004  RH  082%=      5-min Rain = 0
KPD2 150058Z 13006KT 02/M00 A3013 RMK A01 T00231004  RH  082%=      5-min Rain = 0
KPD2 150059Z 15008KT 02/M00 A3013 RMK A01 T00231004  RH  082%=      5-min Rain = 0
KPD2 150100Z 20005KT 02/M00 A3013 RMK A01 T00231003  RH  082%=      5-min Rain = 0
KPD2 150101Z 16005KT 02/M00 A3013 RMK A01 T00231004  RH  082%=      5-min Rain = 0
KPD2 150102Z 19005KT 02/M00 A3013 RMK A01 T00231004  RH  082%=      5-min Rain = 0
KPD2 150103Z 20003KT 02/M00 A3013 RMK A01 T00231004  RH  082%=      5-min Rain = 0
KPD2 150104Z 15004G9KT 02/M00 A3013 RMK A01 T00231004  RH  082%=      5-min Rain = 0
KPD2 150105Z 17008KT 02/M00 A3013 RMK A01 T00231003  RH  083%=      5-min Rain = 0
KPD2 150106Z 22004G11KT 02/M00 A3013 RMK A01 T00231004  RH  083%=      5-min Rain = 0
KPD2 150107Z 14004KT 02/M00 A3013 RMK A01 T00231004  RH  082%=      5-min Rain = 0
KPD2 150108Z 18005KT 02/M00 A3013 RMK A01 T00231004  RH  082%=      5-min Rain = 0
KPD2 150109Z 20007KT 02/M00 A3013 RMK A01 T00231004  RH  082%=      5-min Rain = 0
KPD2 150110Z 20007KT 02/M00 A3013 RMK A01 T00241003  RH  083%=      5-min Rain = 0
KPD2 150111Z 19006KT 02/M00 A3013 RMK A01 T00231003  RH  082%=      5-min Rain = 0
KPD2 150112Z 17006KT 02/M00 A3013 RMK A01 T00241003  RH  082%=      5-min Rain = 0
KPD2 150113Z 14006G11KT 02/M00 A3013 RMK A01 T00241003  RH  082%=      5-min Rain = 0
KPD2 150114Z 15010KT 02/M00 A3013 RMK A01 T00241003  RH  082%=      5-min Rain = 0
KPD2 150115Z 17007KT 02/M00 A3013 RMK A01 T00241003  RH  083%=      5-min Rain = 0
KPD2 150116Z 17006KT 02/M00 A3013 RMK A01 T00241003  RH  083%=      5-min Rain = 0
KPD2 150117Z 16007KT 02/M00 A3013 RMK A01 T00231003  RH  083%=      5-min Rain = 0
KPD2 150118Z 15006KT 02/M00 A3013 RMK A01 T00241003  RH  083%=      5-min Rain = 0
KPD2 150119Z 16006KT 02/M00 A3013 RMK A01 T00231003  RH  083%=      5-min Rain = 0
KPD2 150120Z 16013G20KT 02/M00 A3013 RMK A01 T00231003  RH  083%=      5-min Rain = 0
KPD2 150121Z 16007KT 02/M00 A3013 RMK A01 T00231003  RH  083%=      5-min Rain = 0
KPD2 150122Z 20005KT 02/M00 A3014 RMK A01 T00241003  RH  082%=      5-min Rain = 0
KPD2 150123Z 13007KT 02/M00 A3013 RMK A01 T00231004  RH  082%=      5-min Rain = 0
KPD2 150124Z 16009KT 02/M00 A3013 RMK A01 T00241003  RH  083%=      5-min Rain = 0
KPD2 150125Z 16006G12KT 02/M00 A3014 RMK A01 T00241003  RH  083%=      5-min Rain = 0
KPD2 150126Z 18007KT 02/M00 A3014 RMK A01 T00241003  RH  083%=      5-min Rain = 0
KPD2 150127Z 15006KT 02/M00 A3014 RMK A01 T00241003  RH  083%=      5-min Rain = 0
KPD2 150128Z 15008KT 02/M00 A3014 RMK A01 T00231003  RH  083%=      5-min Rain = 0
KPD2 150129Z 17008KT 02/M00 A3014 RMK A01 T00241003  RH  083%=      5-min Rain = 0
KPD2 150130Z 19007KT 02/M00 A3014 RMK A01 T00241003  RH  083%=      5-min Rain = 0
KPD2 150131Z 15007KT 02/M00 A3013 RMK A01 T00231003  RH  083%=      5-min Rain = 0
KPD2 150132Z 15011KT 02/M00 A3013 RMK A01 T00231003  RH  083%=      5-min Rain = 0
KPD2 150133Z 16012KT 02/M00 A3013 RMK A01 T00231003  RH  083%=      5-min Rain = 0
KPD2 150134Z 14010KT 02/M00 A3013 RMK A01 T00231003  RH  083%=      5-min Rain = 0
KPD2 150135Z 14013KT 02/M00 A3013 RMK A01 T00231003  RH  083%=      5-min Rain = 0
KPD2 150136Z 15014KT 02/M00 A3013 RMK A01 T00241002  RH  083%=      5-min Rain = 0
KPD2 150137Z 15012KT 02/M00 A3013 RMK A01 T00241002  RH  083%=      5-min Rain = 0
KPD2 150138Z 15009KT 02/M00 A3013 RMK A01 T00241002  RH  083%=      5-min Rain = 0
KPD2 150139Z 16008KT 02/M00 A3013 RMK A01 T00241002  RH  083%=      5-min Rain = 0
KPD2 150140Z 17012G17KT 02/M00 A3013 RMK A01 T00241002  RH  083%=      5-min Rain = 0
KPD2 150141Z 16008KT 02/M00 A3013 RMK A01 T00241002  RH  083%=      5-min Rain = 0
KPD2 150142Z 15013KT 02/M00 A3013 RMK A01 T00241002  RH  083%=      5-min Rain = 0
KPD2 150143Z 15010KT 02/M00 A3013 RMK A01 T00241002  RH  083%=      5-min Rain = 0
KPD2 150144Z 18014G19KT 02/M00 A3013 RMK A01 T00241002  RH  083%=      5-min Rain = 0
KPD2 150145Z 17013G18KT 02/M00 A3013 RMK A01 T00241002  RH  083%=      5-min Rain = 0
KPD2 150146Z 14011G16KT 02/M00 A3013 RMK A01 T00241002  RH  083%=      5-min Rain = 0
KPD2 150147Z 16013G19KT 02/M00 A3013 RMK A01 T00241003  RH  083%=      5-min Rain = 0
KPD2 150148Z 18008KT 02/M00 A3013 RMK A01 T00241002  RH  083%=      5-min Rain = 0
KPD2 150149Z 17008G13KT 02/M00 A3013 RMK A01 T00241002  RH  083%=      5-min Rain = 0
KPD2 150150Z 18009KT 02/M00 A3013 RMK A01 T00241003  RH  083%=      5-min Rain = 0
KPD2 150151Z 16010KT 02/M00 A3013 RMK A01 T00241002  RH  083%=      5-min Rain = 0
KPD2 150152Z 17007KT 02/M00 A3013 RMK A01 T00241003  RH  083%=      5-min Rain = 0
KPD2 150153Z 16010KT 02/M00 A3013 RMK A01 T00241003  RH  083%=      5-min Rain = 0
KPD2 150154Z 16013KT 02/M00 A3013 RMK A01 T00241003  RH  083%=      5-min Rain = 0
KPD2 150155Z 15007KT 02/M00 A3013 RMK A01 T00241003  RH  083%=      5-min Rain = 0
KPD2 150156Z 16009G14KT 02/M00 A3013 RMK A01 T00241002  RH  083%=      5-min Rain = 0
KPD2 150157Z 15009KT 02/M00 A3013 RMK A01 T00241003  RH  083%=      5-min Rain = 0
KPD2 150158Z 15010KT 02/M00 A3013 RMK A01 T00241002  RH  083%=      5-min Rain = 0
KPD2 150159Z 16009G14KT 02/M00 A3013 RMK A01 T00241002  RH  083%=      5-min Rain = 0
KPD2 150200Z 15012G19KT 02/M00 A3013 RMK A01 T00241002  RH  083%=      5-min Rain = 0
KPD2 150201Z 18010KT 02/M00 A3013 RMK A01 T00241002  RH  083%=      5-min Rain = 0
KPD2 150202Z 19010G17KT 02/M00 A3013 RMK A01 T00241002  RH  083%=      5-min Rain = 0
KPD2 150203Z 17010KT 02/M00 A3013 RMK A01 T00241002  RH  083%=      5-min Rain = 0
KPD2 150204Z 17012G19KT 02/M00 A3013 RMK A01 T00241002  RH  083%=      5-min Rain = 0
KPD2 150205Z 15010KT 02/M00 A3013 RMK A01 T00241002  RH  083%=      5-min Rain = 0
KPD2 150206Z 16006G13KT 02/M00 A3013 RMK A01 T00241002  RH  083%=      5-min Rain = 0
KPD2 150207Z 17007KT 02/M00 A3013 RMK A01 T00241002  RH  083%=      5-min Rain = 0
KPD2 150208Z 20005KT 02/M00 A3013 RMK A01 T00241002  RH  083%=      5-min Rain = 0
KPD2 150209Z 20009G15KT 02/M00 A3013 RMK A01 T00241002  RH  083%=      5-min Rain = 0
KPD2 150210Z 18007KT 02/M00 A3013 RMK A01 T00241002  RH  083%=      5-min Rain = 0
KPD2 150211Z 18008KT 02/M00 A3013 RMK A01 T00241002  RH  083%=      5-min Rain = 0
KPD2 150212Z 19005KT 02/M00 A3013 RMK A01 T00241002  RH  083%=      5-min Rain = 0
KPD2 150213Z 17010G17KT 03/M00 A3013 RMK A01 T00251002  RH  083%=      5-min Rain = 0
KPD2 150214Z 15016G23KT 03/M00 A3013 RMK A01 T00251002  RH  083%=      5-min Rain = 0
KPD2 150215Z 17009G14KT 03/M00 A3013 RMK A01 T00251002  RH  083%=      5-min Rain = 0
KPD2 150216Z 19005KT 03/M00 A3013 RMK A01 T00251002  RH  082%=      5-min Rain = 0
KPD2 150217Z 16009KT 03/M00 A3013 RMK A01 T00251002  RH  083%=      5-min Rain = 0
KPD2 150218Z 17008KT 03/M00 A3013 RMK A01 T00251002  RH  083%=      5-min Rain = 0
KPD2 150219Z 15009G16KT 03/M00 A3013 RMK A01 T00251001  RH  083%=      5-min Rain = 0
KPD2 150220Z 18011G20KT 03/M00 A3013 RMK A01 T00251001  RH  083%=      5-min Rain = 0
KPD2 150221Z 16009KT 03/M00 A3013 RMK A01 T00251001  RH  083%=      5-min Rain = 0
KPD2 150222Z 15006KT 03/M00 A3013 RMK A01 T00251001  RH  083%=      5-min Rain = 0
KPD2 150223Z 14008KT 03/M00 A3013 RMK A01 T00251001  RH  083%=      5-min Rain = 0
KPD2 150224Z 14011G16KT 03/M00 A3013 RMK A01 T00251001  RH  083%=      5-min Rain = 0
KPD2 150225Z 15009KT 03/M00 A3013 RMK A01 T00251001  RH  083%=      5-min Rain = 0
KPD2 150226Z 16009KT 03/M00 A3013 RMK A01 T00251001  RH  083%=      5-min Rain = 0
KPD2 150227Z 16006KT 03/M00 A3013 RMK A01 T00251001  RH  083%=      5-min Rain = 0
KPD2 150228Z 18005KT 03/M00 A3013 RMK A01 T00251001  RH  083%=      5-min Rain = 0
KPD2 150229Z 17006KT 03/M00 A3013 RMK A01 T00251001  RH  083%=      5-min Rain = 0
KPD2 150230Z 19007G12KT 03/M00 A3013 RMK A01 T00251001  RH  083%=      5-min Rain = 0
KPD2 150231Z 16007KT 03/M00 A3013 RMK A01 T00251001  RH  083%=      5-min Rain = 0
KPD2 150232Z 15004KT 03/M00 A3013 RMK A01 T00251001  RH  083%=      5-min Rain = 0
KPD2 150233Z 17005KT 03/M00 A3013 RMK A01 T00251002  RH  083%=      5-min Rain = 0
KPD2 150234Z 17006KT 02/M00 A3013 RMK A01 T00241002  RH  083%=      5-min Rain = 0
KPD2 150235Z 18009G14KT 02/M00 A3013 RMK A01 T00241002  RH  083%=      5-min Rain = 0
KPD2 150236Z 15008G14KT 02/M00 A3013 RMK A01 T00241001  RH  083%=      5-min Rain = 0
KPD2 150237Z 19008KT 02/M00 A3013 RMK A01 T00241002  RH  083%=      5-min Rain = 0
KPD2 150238Z 14008G14KT 02/M00 A3013 RMK A01 T00241002  RH  083%=      5-min Rain = 0
KPD2 150239Z 16009KT 02/M00 A3013 RMK A01 T00241002  RH  083%=      5-min Rain = 0
KPD2 150240Z 15008G14KT 02/M00 A3014 RMK A01 T00241002  RH  083%=      5-min Rain = 0
KPD2 150241Z 15007G16KT 02/M00 A3014 RMK A01 T00241002  RH  083%=      5-min Rain = 0
KPD2 150242Z 17004KT 02/M00 A3014 RMK A01 T00241002  RH  083%=      5-min Rain = 0
KPD2 150243Z 15007KT 02/M00 A3014 RMK A01 T00241002  RH  083%=      5-min Rain = 0
KPD2 150244Z 15010G15KT 02/M00 A3013 RMK A01 T00241002  RH  083%=      5-min Rain = 0
KPD2 150245Z 16008KT 02/M00 A3013 RMK A01 T00241001  RH  083%=      5-min Rain = 0
KPD2 150246Z 17006KT 02/M00 A3014 RMK A01 T00241001  RH  083%=      5-min Rain = 0
KPD2 150247Z 15009KT 02/M00 A3014 RMK A01 T00241001  RH  083%=      5-min Rain = 0
KPD2 150248Z 13011KT 02/M00 A3013 RMK A01 T00241002  RH  083%=      5-min Rain = 0
KPD2 150249Z 14012KT 02/M00 A3013 RMK A01 T00241002  RH  083%=      5-min Rain = 0
KPD2 150250Z 17008KT 02/M00 A3013 RMK A01 T00241002  RH  083%=      5-min Rain = 0
KPD2 150251Z 17007KT 02/M00 A3013 RMK A01 T00241002  RH  083%=      5-min Rain = 0
KPD2 150252Z 17008KT 02/M00 A3013 RMK A01 T00241002  RH  083%=      5-min Rain = 0
KPD2 150253Z 17009KT 02/M00 A3013 RMK A01 T00241002  RH  083%=      5-min Rain = 0
KPD2 150254Z 17009KT 02/M00 A3013 RMK A01 T00241002  RH  083%=      5-min Rain = 0
KPD2 150255Z 18012G18KT 02/M00 A3013 RMK A01 T00231002  RH  083%=      5-min Rain = 0
KPD2 150256Z 17010KT 02/M00 A3013 RMK A01 T00241002  RH  083%=      5-min Rain = 0
KPD2 150257Z 17011G17KT 02/M00 A3014 RMK A01 T00241001  RH  083%=      5-min Rain = 0
KPD2 150258Z 15009G14KT 03/M00 A3013 RMK A01 T00251001  RH  083%=      5-min Rain = 0
KPD2 150259Z 15012G19KT 02/M00 A3013 RMK A01 T00241002  RH  083%=      5-min Rain = 0
KPD2 150300Z 15010G16KT 02/M00 A3013 RMK A01 T00241002  RH  083%=      5-min Rain = 0
KPD2 150301Z 14009G17KT 02/M00 A3013 RMK A01 T00241002  RH  083%=      5-min Rain = 0
KPD2 150302Z 15006G11KT 02/M00 A3013 RMK A01 T00241002  RH  083%=      5-min Rain = 0
KPD2 150303Z 16007G14KT 02/M00 A3013 RMK A01 T00241001  RH  083%=      5-min Rain = 0
KPD2 150304Z 15009KT 02/M00 A3013 RMK A01 T00241002  RH  083%=      5-min Rain = 0
KPD2 150305Z 15007KT 02/M00 A3013 RMK A01 T00231002  RH  083%=      5-min Rain = 0
KPD2 150306Z 13006KT 02/M00 A3013 RMK A01 T00241001  RH  084%=      5-min Rain = 0
KPD2 150307Z 16006G13KT 02/M00 A3013 RMK A01 T00231002  RH  083%=      5-min Rain = 0
KPD2 150308Z 16005G11KT 02/M00 A3013 RMK A01 T00231002  RH  084%=      5-min Rain = 0
KPD2 150309Z 16008KT 02/M00 A3013 RMK A01 T00231001  RH  084%=      5-min Rain = 0
KPD2 150310Z 14010G15KT 02/M00 A3013 RMK A01 T00231001  RH  084%=      5-min Rain = 0
KPD2 150311Z 14008KT 02/M00 A3013 RMK A01 T00231001  RH  084%=      5-min Rain = 0
KPD2 150312Z 15008KT 02/M00 A3013 RMK A01 T00231001  RH  084%=      5-min Rain = 0
KPD2 150313Z 16009G14KT 02/M00 A3013 RMK A01 T00231001  RH  084%=      5-min Rain = 0
KPD2 150314Z 14009KT 02/M00 A3013 RMK A01 T00241001  RH  084%=      5-min Rain = 0
KPD2 150315Z 15006KT 02/M00 A3013 RMK A01 T00241001  RH  084%=      5-min Rain = 0
KPD2 150316Z 16008KT 02/M00 A3013 RMK A01 T00241001  RH  084%=      5-min Rain = 0
KPD2 150317Z 14007KT 03/00 A3013 RMK A01 T002500-0  RH  084%=      5-min Rain = 0
KPD2 150318Z 16004KT 02/M00 A3013 RMK A01 T00241001  RH  084%=      5-min Rain = 0
KPD2 150319Z 15008G14KT 03/00 A3013 RMK A01 T002500-0  RH  084%=      5-min Rain = 0
KPD2 150320Z 15010KT 03/00 A3013 RMK A01 T002500-0  RH  084%=      5-min Rain = 0
KPD2 150321Z 16008KT 03/00 A3013 RMK A01 T00250000  RH  084%=      5-min Rain = 0
KPD2 150322Z 12007KT 03/00 A3013 RMK A01 T002500-0  RH  083%=      5-min Rain = 0
KPD2 150323Z 15007KT 03/M00 A3013 RMK A01 T00251001  RH  083%=      5-min Rain = 0
KPD2 150324Z 14005KT 03/M00 A3013 RMK A01 T00251001  RH  083%=      5-min Rain = 0
KPD2 150325Z 15004KT 03/M00 A3013 RMK A01 T00251001  RH  083%=      5-min Rain = 0
KPD2 150326Z 14008KT 02/M00 A3013 RMK A01 T00241001  RH  083%=      5-min Rain = 0
KPD2 150327Z 13008KT 02/M00 A3013 RMK A01 T00241001  RH  084%=      5-min Rain = 0
KPD2 150328Z 13006KT 02/00 A3013 RMK A01 T002400-0  RH  084%=      5-min Rain = 0
KPD2 150329Z 13007KT 02/M00 A3013 RMK A01 T00231001  RH  084%=      5-min Rain = 0
KPD2 150330Z 12006KT 02/M00 A3013 RMK A01 T00231001  RH  084%=      5-min Rain = 0
KPD2 150331Z 14006KT 02/M00 A3013 RMK A01 T00221002  RH  084%=      5-min Rain = 0
KPD2 150332Z 13009KT 02/M00 A3013 RMK A01 T00221001  RH  085%=      5-min Rain = 0
KPD2 150333Z 14007KT 02/M00 A3013 RMK A01 T00221001  RH  085%=      5-min Rain = 0
KPD2 150334Z 16007KT 02/M00 A3013 RMK A01 T00221001  RH  085%=      5-min Rain = 0
KPD2 150335Z 13005KT 02/00 A3013 RMK A01 T002200-0  RH  085%=      5-min Rain = 0
KPD2 150336Z 15005KT 02/00 A3013 RMK A01 T002200-0  RH  085%=      5-min Rain = 0
KPD2 150337Z 14004KT 02/00 A3013 RMK A01 T00230000  RH  085%=      5-min Rain = 0
KPD2 150338Z 14005KT 02/00 A3013 RMK A01 T002300-0  RH  084%=      5-min Rain = 0
KPD2 150339Z 18003KT 02/M00 A3013 RMK A01 T00231001  RH  084%=      5-min Rain = 0
KPD2 150340Z 18001KT 02/00 A3013 RMK A01 T00230000  RH  085%=      5-min Rain = 0
KPD2 150341Z 14001KT 02/00 A3013 RMK A01 T002300-0  RH  085%=      5-min Rain = 0
KPD2 150342Z 14004KT 02/M00 A3013 RMK A01 T00231001  RH  085%=      5-min Rain = 0
KPD2 150343Z 13006KT 02/00 A3012 RMK A01 T002300-0  RH  085%=      5-min Rain = 0
KPD2 150344Z 13005KT 02/00 A3013 RMK A01 T002300-0  RH  085%=      5-min Rain = 0
KPD2 150345Z 15008KT 02/00 A3012 RMK A01 T00230000  RH  085%=      5-min Rain = 0
KPD2 150346Z 16005KT 02/00 A3012 RMK A01 T00230000  RH  085%=      5-min Rain = 0
KPD2 150347Z 11003KT 02/00 A3013 RMK A01 T00230000  RH  085%=      5-min Rain = 0
KPD2 150348Z 13004KT 02/00 A3013 RMK A01 T002300-0  RH  085%=      5-min Rain = 0
KPD2 150349Z 11003KT 02/M00 A3013 RMK A01 T00221001  RH  085%=      5-min Rain = 0
KPD2 150350Z 15004KT 02/M00 A3013 RMK A01 T00221001  RH  085%=      5-min Rain = 0
KPD2 150351Z 15005KT 02/M00 A3013 RMK A01 T00211001  RH  085%=      5-min Rain = 0
KPD2 150352Z 13002KT 02/M00 A3013 RMK A01 T00211001  RH  085%=      5-min Rain = 0
KPD2 150353Z 09002KT 02/M00 A3013 RMK A01 T00211001  RH  086%=      5-min Rain = 0
KPD2 150354Z 08005KT 02/M00 A3012 RMK A01 T00211001  RH  085%=      5-min Rain = 0
KPD2 150355Z 11006KT 02/M00 A3013 RMK A01 T00211001  RH  085%=      5-min Rain = 0
KPD2 150356Z 12008KT 02/M00 A3012 RMK A01 T00211001  RH  085%=      5-min Rain = 0
KPD2 150357Z 11006KT 02/00 A3012 RMK A01 T002100-0  RH  086%=      5-min Rain = 0
KPD2 150358Z 12008KT 02/00 A3012 RMK A01 T002100-0  RH  086%=      5-min Rain = 0
KPD2 150359Z 14008KT 02/M00 A3012 RMK A01 T00201001  RH  086%=      5-min Rain = 0
KPD2 150400Z 13007KT 02/00 A3012 RMK A01 T002000-0  RH  086%=      5-min Rain = 0
KPD2 150401Z 12006KT 02/00 A3012 RMK A01 T002100-0  RH  086%=      5-min Rain = 0
KPD2 150402Z 12008KT 02/00 A3012 RMK A01 T002100-0  RH  086%=      5-min Rain = 0
KPD2 150403Z 12010KT 02/M00 A3012 RMK A01 T00211001  RH  086%=      5-min Rain = 0
KPD2 150404Z 11005KT 02/00 A3012 RMK A01 T002100-0  RH  086%=      5-min Rain = 0
KPD2 150405Z 12005KT 02/00 A3012 RMK A01 T00210000  RH  086%=      5-min Rain = 0
KPD2 150406Z 12008KT 02/00 A3012 RMK A01 T00210000  RH  086%=      5-min Rain = 0
KPD2 150407Z 15003KT 02/00 A3012 RMK A01 T00210001  RH  086%=      5-min Rain = 0
KPD2 150408Z 10004KT 02/00 A3012 RMK A01 T00220000  RH  086%=      5-min Rain = 0
KPD2 150409Z 10003KT 02/00 A3012 RMK A01 T002200-0  RH  085%=      5-min Rain = 0
KPD2 150410Z 11005KT 02/00 A3012 RMK A01 T002200-0  RH  085%=      5-min Rain = 0
KPD2 150411Z 09005KT 02/00 A3012 RMK A01 T002100-0  RH  086%=      5-min Rain = 0
KPD2 150412Z 10006KT 02/00 A3012 RMK A01 T002100-0  RH  086%=      5-min Rain = 0
KPD2 150413Z 09006KT 02/00 A3012 RMK A01 T00210000  RH  086%=      5-min Rain = 0
KPD2 150414Z 09005KT 02/00 A3012 RMK A01 T002100-0  RH  086%=      5-min Rain = 0
KPD2 150415Z 10007KT 02/00 A3012 RMK A01 T002100-0  RH  086%=      5-min Rain = 0
KPD2 150416Z 10006KT 02/00 A3012 RMK A01 T00210000  RH  086%=      5-min Rain = 0
KPD2 150417Z 11005KT 02/00 A3012 RMK A01 T00210000  RH  086%=      5-min Rain = 0
KPD2 150418Z 10005KT 02/00 A3012 RMK A01 T00210000  RH  086%=      5-min Rain = 0
KPD2 150419Z 11004KT 02/00 A3012 RMK A01 T002100-0  RH  086%=      5-min Rain = 0
KPD2 150420Z 12004KT 02/00 A3012 RMK A01 T002100-0  RH  086%=      5-min Rain = 0
KPD2 150421Z 10003KT 02/00 A3012 RMK A01 T002100-0  RH  086%=      5-min Rain = 0
KPD2 150422Z 10003KT 02/00 A3012 RMK A01 T002100-0  RH  086%=      5-min Rain = 0
KPD2 150423Z 10005KT 02/00 A3012 RMK A01 T002100-0  RH  086%=      5-min Rain = 0
KPD2 150424Z 09004KT 02/00 A3012 RMK A01 T002100-0  RH  086%=      5-min Rain = 0
KPD2 150425Z 15002KT 02/00 A3012 RMK A01 T00210001  RH  086%=      5-min Rain = 0
KPD2 150426Z 13003KT 02/00 A3012 RMK A01 T00220001  RH  086%=      5-min Rain = 0
KPD2 150427Z 12003KT 02/00 A3012 RMK A01 T00220001  RH  086%=      5-min Rain = 0
KPD2 150428Z 11004KT 02/00 A3012 RMK A01 T002200-0  RH  085%=      5-min Rain = 0
KPD2 150429Z 10003KT 02/M00 A3012 RMK A01 T00211001  RH  086%=      5-min Rain = 0
KPD2 150430Z 09005KT 02/M00 A3012 RMK A01 T00201001  RH  086%=      5-min Rain = 0
KPD2 150431Z 10003KT 02/00 A3012 RMK A01 T002000-0  RH  086%=      5-min Rain = 0
KPD2 150432Z 13003KT 02/00 A3012 RMK A01 T002000-0  RH  086%=      5-min Rain = 0
KPD2 150433Z 11003KT 02/00 A3012 RMK A01 T002000-0  RH  086%=      5-min Rain = 0
KPD2 150434Z 18004KT 02/M00 A3012 RMK A01 T00201001  RH  086%=      5-min Rain = 0
KPD2 150435Z 20004KT 02/M00 A3012 RMK A01 T00191001  RH  086%=      5-min Rain = 0
KPD2 150436Z 17002KT 02/M00 A3011 RMK A01 T00181003  RH  086%=      5-min Rain = 0
KPD2 150437Z 10003KT 02/M01 A3011 RMK A01 T00161005  RH  086%=      5-min Rain = 0
KPD2 150438Z 11003KT 02/M01 A3012 RMK A01 T00151005  RH  086%=      5-min Rain = 0
KPD2 150439Z 12002KT 01/M01 A3012 RMK A01 T00141005  RH  087%=      5-min Rain = 0
KPD2 150440Z 10004KT 01/M01 A3012 RMK A01 T00131006  RH  087%=      5-min Rain = 0
KPD2 150441Z 10004KT 01/M01 A3011 RMK A01 T00121007  RH  087%=      5-min Rain = 0
KPD2 150442Z 11004KT 01/M01 A3011 RMK A01 T00121006  RH  088%=      5-min Rain = 0
KPD2 150443Z 09003KT 01/M00 A3011 RMK A01 T00131003  RH  089%=      5-min Rain = 0
KPD2 150444Z 11001KT 01/M00 A3011 RMK A01 T00141001  RH  090%=      5-min Rain = 0
KPD2 150445Z 12004KT 02/M00 A3011 RMK A01 T00151001  RH  090%=      5-min Rain = 0
KPD2 150446Z 09003KT 02/00 A3011 RMK A01 T00160001  RH  090%=      5-min Rain = 0
KPD2 150447Z 10002KT 02/00 A3011 RMK A01 T00180002  RH  089%=      5-min Rain = 0
KPD2 150448Z 21001KT 02/00 A3012 RMK A01 T00190002  RH  089%=      5-min Rain = 0
KPD2 150449Z 10001KT 02/00 A3012 RMK A01 T00190001  RH  088%=      5-min Rain = 0
KPD2 150450Z 12002KT 02/00 A3011 RMK A01 T00190000  RH  087%=      5-min Rain = 0
KPD2 150451Z 22003KT 02/00 A3011 RMK A01 T00190001  RH  088%=      5-min Rain = 0
KPD2 150452Z 20003KT 02/00 A3011 RMK A01 T00200001  RH  087%=      5-min Rain = 0
KPD2 150453Z 15001KT 02/00 A3011 RMK A01 T00200000  RH  087%=      5-min Rain = 0
KPD2 150454Z 14001KT 02/00 A3011 RMK A01 T00210002  RH  087%=      5-min Rain = 0
KPD2 150455Z 11002KT 02/00 A3011 RMK A01 T00220002  RH  087%=      5-min Rain = 0
KPD2 150456Z 07003KT 02/00 A3011 RMK A01 T00210001  RH  086%=      5-min Rain = 0
KPD2 150457Z 08001KT 02/00 A3011 RMK A01 T002100-0  RH  086%=      5-min Rain = 0
KPD2 150458Z 01000KT 02/00 A3011 RMK A01 T002000-0  RH  086%=      5-min Rain = 0
KPD2 150459Z 30002KT 02/M00 A3011 RMK A01 T00191002  RH  086%=      5-min Rain = 0
KPD2 150500Z 31002KT 02/M00 A3011 RMK A01 T00171004  RH  086%=      5-min Rain = 0
KPD2 150501Z 31000KT 02/M00 A3011 RMK A01 T00161004  RH  087%=      5-min Rain = 0
KPD2 150502Z 30000KT 02/M00 A3011 RMK A01 T00171002  RH  087%=      5-min Rain = 0
KPD2 150503Z 00000KT 02/00 A3012 RMK A01 T00180000  RH  088%=      5-min Rain = 0
KPD2 150504Z 01001KT 02/00 A3011 RMK A01 T00190001  RH  088%=      5-min Rain = 0
KPD2 150505Z 04003KT 02/00 A3011 RMK A01 T00190001  RH  088%=      5-min Rain = 0
KPD2 150506Z 01002KT 02/00 A3011 RMK A01 T00190001  RH  088%=      5-min Rain = 0
KPD2 150507Z 34001KT 02/00 A3011 RMK A01 T00200001  RH  087%=      5-min Rain = 0
KPD2 150508Z 02000KT 02/00 A3011 RMK A01 T00200001  RH  087%=      5-min Rain = 0
KPD2 150509Z 07001KT 02/00 A3011 RMK A01 T00200001  RH  087%=      5-min Rain = 0
KPD2 150510Z 10002KT 02/00 A3011 RMK A01 T00210003  RH  088%=      5-min Rain = 0
KPD2 150511Z 10003KT 02/00 A3011 RMK A01 T00220004  RH  087%=      5-min Rain = 0
KPD2 150512Z 09003KT 02/00 A3011 RMK A01 T00220003  RH  087%=      5-min Rain = 0
KPD2 150513Z 05003KT 02/00 A3011 RMK A01 T00220002  RH  087%=      5-min Rain = 0
KPD2 150514Z 04003KT 02/00 A3011 RMK A01 T00220002  RH  087%=      5-min Rain = 0
KPD2 150515Z 06001KT 02/00 A3011 RMK A01 T00220002  RH  087%=      5-min Rain = 0
KPD2 150516Z 05002KT 02/00 A3011 RMK A01 T00230004  RH  087%=      5-min Rain = 0
KPD2 150517Z 04002KT 02/00 A3011 RMK A01 T00240004  RH  087%=      5-min Rain = 0
KPD2 150518Z 04001KT 02/00 A3011 RMK A01 T00240003  RH  086%=      5-min Rain = 0
KPD2 150519Z 02002KT 02/00 A3011 RMK A01 T00240003  RH  086%=      5-min Rain = 0
KPD2 150520Z 03003KT 02/00 A3011 RMK A01 T00240002  RH  086%=      5-min Rain = 0
KPD2 150521Z 33004KT 02/00 A3011 RMK A01 T00230001  RH  086%=      5-min Rain = 0
KPD2 150522Z 31004KT 02/00 A3011 RMK A01 T00220001  RH  086%=      5-min Rain = 0
KPD2 150523Z 32003KT 02/00 A3011 RMK A01 T00230002  RH  086%=      5-min Rain = 0
KPD2 150524Z 33003KT 02/00 A3011 RMK A01 T00240003  RH  086%=      5-min Rain = 0
KPD2 150525Z 32003KT 02/00 A301 RMK A01 T00240002  RH  086%=      5-min Rain = 0
KPD2 150526Z 33003KT 02/00 A301 RMK A01 T00230002  RH  086%=      5-min Rain = 0
KPD2 150527Z 34002KT 02/00 A301 RMK A01 T00230002  RH  086%=      5-min Rain = 0
KPD2 150528Z 33003KT 02/00 A301 RMK A01 T00230002  RH  086%=      5-min Rain = 0
KPD2 150529Z 32003KT 02/00 A301 RMK A01 T00240003  RH  086%=      5-min Rain = 0
KPD2 150530Z 34002KT 03/01 A301 RMK A01 T00250005  RH  086%=      5-min Rain = 0
KPD2 150531Z 36003KT 03/00 A301 RMK A01 T00260004  RH  086%=      5-min Rain = 0
KPD2 150532Z 32004KT 03/00 A301 RMK A01 T00250002  RH  085%=      5-min Rain = 0
KPD2 150533Z 31002KT 02/00 A301 RMK A01 T00240000  RH  085%=      5-min Rain = 0
KPD2 150534Z 22002KT 02/00 A301 RMK A01 T00240001  RH  085%=      5-min Rain = 0
KPD2 150535Z 20000KT 02/00 A301 RMK A01 T00240003  RH  086%=      5-min Rain = 0
KPD2 150536Z 32001KT 03/00 A301 RMK A01 T00250003  RH  086%=      5-min Rain = 0
KPD2 150537Z 32001KT 03/00 A301 RMK A01 T00250003  RH  086%=      5-min Rain = 0
KPD2 150538Z 24003KT 03/00 A301 RMK A01 T00260004  RH  085%=      5-min Rain = 0
KPD2 150539Z 23002KT 03/00 A301 RMK A01 T00260003  RH  085%=      5-min Rain = 0
KPD2 150540Z 25000KT 03/00 A301 RMK A01 T00270004  RH  085%=      5-min Rain = 0
KPD2 150541Z 24003KT 03/00 A301 RMK A01 T00270004  RH  085%=      5-min Rain = 0
KPD2 150542Z 27003KT 03/00 A301 RMK A01 T00270003  RH  085%=      5-min Rain = 0
KPD2 150543Z 04000KT 03/00 A301 RMK A01 T00270004  RH  085%=      5-min Rain = 0
KPD2 150544Z 19002KT 03/00 A301 RMK A01 T00280004  RH  085%=      5-min Rain = 0
KPD2 150545Z 21003KT 03/01 A301 RMK A01 T00280005  RH  085%=      5-min Rain = 0
KPD2 150546Z 22002KT 03/01 A301 RMK A01 T00290005  RH  084%=      5-min Rain = 0
KPD2 150547Z 05001KT 03/01 A301 RMK A01 T00290005  RH  084%=      5-min Rain = 0
KPD2 150548Z 08001KT 03/00 A301 RMK A01 T00290004  RH  084%=      5-min Rain = 0
KPD2 150549Z 13004KT 03/00 A301 RMK A01 T00290004  RH  084%=      5-min Rain = 0
KPD2 150550Z 18002KT 03/00 A301 RMK A01 T00290004  RH  084%=      5-min Rain = 0
KPD2 150551Z 26001KT 03/00 A301 RMK A01 T00290004  RH  084%=      5-min Rain = 0
KPD2 150552Z 26002KT 03/00 A301 RMK A01 T00290004  RH  083%=      5-min Rain = 0
KPD2 150553Z 21002KT 03/00 A301 RMK A01 T00290004  RH  084%=      5-min Rain = 0
KPD2 150554Z 23001KT 03/00 A301 RMK A01 T00290004  RH  084%=      5-min Rain = 0
KPD2 150555Z 19002KT 03/01 A301 RMK A01 T00300005  RH  084%=      5-min Rain = 0
KPD2 150556Z 16000KT 03/00 A301 RMK A01 T00300004  RH  083%=      5-min Rain = 0
KPD2 150557Z 06000KT 03/00 A301 RMK A01 T00290003  RH  083%=      5-min Rain = 0
KPD2 150558Z 32000KT 03/00 A301 RMK A01 T00290004  RH  084%=      5-min Rain = 0
KPD2 150559Z 09001KT 03/00 A301 RMK A01 T00290004  RH  084%=      5-min Rain = 0

Page generated in 0.1894 seconds.